AAL7 SBGR-KMIA
Flight info
| Callsign | AAL7 |
|---|---|
| Flight time | 7h 38m |
| Altitude | 34000 |
| Route | GERTU UL304 OPNUS UM417 KONKI UL304 BRUTI UM417 GIKVI/N0494F360 UM417 ISUNU UM409 VUMPI UL795 PUTAR/N0488F380 UL795 ALTIB UM779 ZEUSS VIICE2 |
| Aircraft | B77W/H-SDE1E2E3FGHIJ2J3J4J5M1RWXY/LB1D1 |
Departure
| Time | 2026-05-05 05:43 |
|---|---|
| Airport | São Paulo/Guarulhos–Governor André Franco Montoro International Airport (SBGR) |
Arrival
| Time | 2026-05-05 13:21 |
|---|---|
| Airport | Miami International Airport (KMIA) |
| Time | Latitude | Longitude | Altitude | Speed | Heading |
|---|---|---|---|---|---|
| 2026-05-05 05:09 | -23.42695 | -46.47458 | 2453 ft | 0 kts | 73° |
| 2026-05-05 05:31 | -23.42699 | -46.47473 | 2453 ft | 2 kts | 73° |
| 2026-05-05 05:32 | -23.42703 | -46.47488 | 2453 ft | 2 kts | 73° |
| 2026-05-05 05:32 | -23.42707 | -46.47504 | 2453 ft | 2 kts | 80° |
| 2026-05-05 05:32 | -23.42707 | -46.47521 | 2453 ft | 2 kts | 104° |
| 2026-05-05 05:32 | -23.42702 | -46.47536 | 2453 ft | 2 kts | 122° |
| 2026-05-05 05:33 | -23.42693 | -46.47549 | 2453 ft | 2 kts | 140° |
| 2026-05-05 05:33 | -23.42680 | -46.47558 | 2453 ft | 2 kts | 158° |
| 2026-05-05 05:33 | -23.42673 | -46.47560 | 2453 ft | 1 kts | 164° |
| 2026-05-05 05:33 | -23.42672 | -46.47561 | 2453 ft | 0 kts | 164° |
| 2026-05-05 05:37 | -23.42683 | -46.47557 | 2453 ft | 6 kts | 164° |
| 2026-05-05 05:37 | -23.42747 | -46.47536 | 2453 ft | 9 kts | 163° |
| 2026-05-05 05:38 | -23.42804 | -46.47517 | 2453 ft | 7 kts | 161° |
| 2026-05-05 05:38 | -23.42853 | -46.47499 | 2453 ft | 7 kts | 161° |
| 2026-05-05 05:38 | -23.42910 | -46.47498 | 2453 ft | 8 kts | 200° |
| 2026-05-05 05:38 | -23.42943 | -46.47528 | 2453 ft | 3 kts | 238° |
| 2026-05-05 05:39 | -23.42956 | -46.47554 | 2453 ft | 5 kts | 242° |
| 2026-05-05 05:39 | -23.42974 | -46.47598 | 2453 ft | 7 kts | 250° |
| 2026-05-05 05:39 | -23.42991 | -46.47662 | 2453 ft | 10 kts | 255° |
| 2026-05-05 05:39 | -23.43015 | -46.47761 | 2453 ft | 16 kts | 254° |
| 2026-05-05 05:40 | -23.43045 | -46.47874 | 2453 ft | 14 kts | 253° |
| 2026-05-05 05:40 | -23.43072 | -46.47971 | 2453 ft | 12 kts | 251° |
| 2026-05-05 05:40 | -23.43097 | -46.48056 | 2453 ft | 11 kts | 253° |
| 2026-05-05 05:40 | -23.43119 | -46.48137 | 2453 ft | 10 kts | 253° |
| 2026-05-05 05:41 | -23.43140 | -46.48216 | 2453 ft | 10 kts | 254° |
| 2026-05-05 05:41 | -23.43160 | -46.48295 | 2453 ft | 12 kts | 254° |
| 2026-05-05 05:41 | -23.43211 | -46.48377 | 2453 ft | 15 kts | 202° |
| 2026-05-05 05:41 | -23.43327 | -46.48358 | 2453 ft | 18 kts | 163° |
| 2026-05-05 05:42 | -23.43408 | -46.48266 | 2453 ft | 19 kts | 85° |
| 2026-05-05 05:42 | -23.43361 | -46.48080 | 2453 ft | 36 kts | 73° |
| 2026-05-05 05:42 | -23.43217 | -46.47542 | 2453 ft | 112 kts | 73° |
| 2026-05-05 05:42 | -23.42920 | -46.46460 | 2454 ft | 182 kts | 74° |
| 2026-05-05 05:43 | -23.42536 | -46.44971 | 2780 ft | 220 kts | 75° |
| 2026-05-05 05:43 | -23.42184 | -46.43319 | 3675 ft | 230 kts | 74° |
| 2026-05-05 05:43 | -23.41770 | -46.41739 | 4958 ft | 215 kts | 68° |
| 2026-05-05 05:43 | -23.41177 | -46.40196 | 5349 ft | 231 kts | 68° |
| 2026-05-05 05:44 | -23.40617 | -46.38492 | 5704 ft | 248 kts | 71° |
| 2026-05-05 05:44 | -23.40060 | -46.36642 | 6212 ft | 258 kts | 67° |
| 2026-05-05 05:44 | -23.39186 | -46.34873 | 6845 ft | 262 kts | 57° |
| 2026-05-05 05:44 | -23.38020 | -46.33336 | 7427 ft | 267 kts | 36° |
| 2026-05-05 05:45 | -23.36360 | -46.32412 | 7861 ft | 278 kts | 11° |
| 2026-05-05 05:45 | -23.34411 | -46.32362 | 8438 ft | 284 kts | 345° |
| 2026-05-05 05:45 | -23.32622 | -46.33275 | 9110 ft | 286 kts | 319° |
| 2026-05-05 05:45 | -23.31335 | -46.34892 | 9799 ft | 288 kts | 304° |
| 2026-05-05 05:46 | -23.29971 | -46.36559 | 10453 ft | 296 kts | 317° |
| 2026-05-05 05:46 | -23.28282 | -46.38010 | 10842 ft | 315 kts | 323° |
| 2026-05-05 05:46 | -23.26399 | -46.39402 | 11258 ft | 332 kts | 325° |
| 2026-05-05 05:46 | -23.24426 | -46.40811 | 11698 ft | 348 kts | 325° |
| 2026-05-05 05:47 | -23.22371 | -46.42273 | 12155 ft | 363 kts | 325° |
| 2026-05-05 05:47 | -23.20224 | -46.43828 | 12615 ft | 377 kts | 322° |
| 2026-05-05 05:47 | -23.18261 | -46.45796 | 13062 ft | 389 kts | 309° |
| 2026-05-05 05:47 | -23.16591 | -46.48154 | 13635 ft | 398 kts | 305° |
| 2026-05-05 05:48 | -23.14921 | -46.50629 | 14402 ft | 402 kts | 304° |
| 2026-05-05 05:48 | -23.13274 | -46.53072 | 15133 ft | 406 kts | 304° |
| 2026-05-05 05:48 | -23.11605 | -46.55547 | 15846 ft | 410 kts | 304° |
| 2026-05-05 05:48 | -23.09917 | -46.58048 | 16572 ft | 414 kts | 303° |
| 2026-05-05 05:49 | -23.08198 | -46.60595 | 17281 ft | 417 kts | 303° |
| 2026-05-05 05:49 | -23.06471 | -46.63152 | 17979 ft | 421 kts | 303° |
| 2026-05-05 05:49 | -23.04713 | -46.65755 | 18662 ft | 425 kts | 303° |
| 2026-05-05 05:49 | -23.02968 | -46.68335 | 19313 ft | 429 kts | 303° |
| 2026-05-05 05:50 | -23.01152 | -46.71021 | 20009 ft | 433 kts | 303° |
| 2026-05-05 05:50 | -22.99354 | -46.73680 | 20680 ft | 437 kts | 303° |
| 2026-05-05 05:50 | -22.97518 | -46.76391 | 21350 ft | 441 kts | 302° |
| 2026-05-05 05:50 | -22.95708 | -46.79063 | 21953 ft | 446 kts | 302° |
| 2026-05-05 05:51 | -22.93854 | -46.81800 | 22583 ft | 449 kts | 302° |
| 2026-05-05 05:51 | -22.92008 | -46.84523 | 23186 ft | 453 kts | 302° |
| 2026-05-05 05:51 | -22.90137 | -46.87281 | 23786 ft | 457 kts | 302° |
| 2026-05-05 05:51 | -22.88257 | -46.90051 | 24379 ft | 460 kts | 302° |
| 2026-05-05 05:52 | -22.86351 | -46.92858 | 24933 ft | 463 kts | 302° |
| 2026-05-05 05:52 | -22.84454 | -46.95650 | 25488 ft | 467 kts | 302° |
| 2026-05-05 05:52 | -22.82486 | -46.98546 | 26075 ft | 469 kts | 302° |
| 2026-05-05 05:52 | -22.80505 | -47.01457 | 26699 ft | 471 kts | 302° |
| 2026-05-05 05:53 | -22.78537 | -47.04349 | 27244 ft | 474 kts | 302° |
| 2026-05-05 05:53 | -22.76593 | -47.07204 | 27765 ft | 477 kts | 302° |
| 2026-05-05 05:53 | -22.74599 | -47.10131 | 28261 ft | 481 kts | 302° |
| 2026-05-05 05:53 | -22.72621 | -47.13032 | 28792 ft | 483 kts | 302° |
| 2026-05-05 05:54 | -22.70610 | -47.15980 | 29279 ft | 487 kts | 302° |
| 2026-05-05 05:54 | -22.68620 | -47.18895 | 29850 ft | 488 kts | 302° |
| 2026-05-05 05:54 | -22.66609 | -47.21838 | 30564 ft | 486 kts | 301° |
| 2026-05-05 05:54 | -22.64616 | -47.24752 | 31383 ft | 481 kts | 301° |
| 2026-05-05 05:55 | -22.62610 | -47.27682 | 32181 ft | 477 kts | 301° |
| 2026-05-05 05:55 | -22.60653 | -47.30541 | 32807 ft | 474 kts | 301° |
| 2026-05-05 05:55 | -22.58656 | -47.33457 | 33378 ft | 473 kts | 301° |
| 2026-05-05 05:55 | -22.56705 | -47.36304 | 33921 ft | 471 kts | 301° |
| 2026-05-05 05:56 | -22.54744 | -47.39167 | 34165 ft | 474 kts | 301° |
| 2026-05-05 05:56 | -22.52784 | -47.42025 | 34172 ft | 471 kts | 301° |
| 2026-05-05 05:56 | -22.48887 | -47.47702 | 34180 ft | 468 kts | 300° |
| 2026-05-05 05:57 | -22.45020 | -47.53323 | 34169 ft | 468 kts | 302° |
| 2026-05-05 05:57 | -22.40256 | -47.58281 | 34175 ft | 483 kts | 317° |
| 2026-05-05 05:58 | -22.34759 | -47.62436 | 34177 ft | 485 kts | 319° |
| 2026-05-05 05:58 | -22.29196 | -47.66595 | 34196 ft | 485 kts | 319° |
| 2026-05-05 05:59 | -22.23646 | -47.70741 | 34207 ft | 485 kts | 319° |
| 2026-05-05 05:59 | -22.18077 | -47.74898 | 34211 ft | 483 kts | 319° |
| 2026-05-05 06:00 | -22.12563 | -47.79011 | 34216 ft | 485 kts | 319° |
| 2026-05-05 06:00 | -22.07014 | -47.83145 | 34212 ft | 484 kts | 319° |
| 2026-05-05 06:01 | -22.01435 | -47.87298 | 34214 ft | 484 kts | 319° |
| 2026-05-05 06:01 | -21.95896 | -47.91416 | 34207 ft | 483 kts | 319° |
| 2026-05-05 06:02 | -21.90349 | -47.95539 | 34197 ft | 484 kts | 319° |
| 2026-05-05 06:02 | -21.84832 | -47.99633 | 34180 ft | 483 kts | 319° |
| 2026-05-05 06:03 | -21.79286 | -48.03746 | 34175 ft | 483 kts | 319° |
| 2026-05-05 06:03 | -21.73819 | -48.07895 | 34172 ft | 482 kts | 317° |
| 2026-05-05 06:04 | -21.68342 | -48.12085 | 34169 ft | 483 kts | 318° |
| 2026-05-05 06:04 | -21.62867 | -48.16265 | 34167 ft | 482 kts | 318° |
| 2026-05-05 06:05 | -21.57405 | -48.20427 | 34167 ft | 482 kts | 318° |
| 2026-05-05 06:05 | -21.51911 | -48.24610 | 34163 ft | 483 kts | 318° |
| 2026-05-05 06:06 | -21.46426 | -48.28780 | 34163 ft | 482 kts | 318° |
| 2026-05-05 06:06 | -21.40934 | -48.32952 | 34159 ft | 483 kts | 318° |
| 2026-05-05 06:07 | -21.35472 | -48.37096 | 34152 ft | 482 kts | 318° |
| 2026-05-05 06:07 | -21.29994 | -48.41249 | 34141 ft | 481 kts | 318° |
| 2026-05-05 06:08 | -21.24512 | -48.45402 | 34138 ft | 481 kts | 318° |
| 2026-05-05 06:08 | -21.19016 | -48.49562 | 34139 ft | 484 kts | 319° |
| 2026-05-05 06:09 | -21.13503 | -48.53729 | 34139 ft | 482 kts | 319° |
| 2026-05-05 06:09 | -21.08007 | -48.57880 | 34135 ft | 483 kts | 318° |
| 2026-05-05 06:10 | -21.02507 | -48.62030 | 34132 ft | 483 kts | 318° |
| 2026-05-05 06:10 | -20.97012 | -48.66173 | 34135 ft | 483 kts | 319° |
| 2026-05-05 06:11 | -20.91503 | -48.70322 | 34133 ft | 482 kts | 319° |
| 2026-05-05 06:11 | -20.86019 | -48.74449 | 34128 ft | 482 kts | 319° |
| 2026-05-05 06:12 | -20.80531 | -48.78575 | 34121 ft | 482 kts | 319° |
| 2026-05-05 06:12 | -20.75040 | -48.82700 | 34120 ft | 482 kts | 319° |
| 2026-05-05 06:13 | -20.69583 | -48.86795 | 34115 ft | 483 kts | 319° |
| 2026-05-05 06:13 | -20.64054 | -48.90940 | 34119 ft | 484 kts | 319° |
| 2026-05-05 06:14 | -20.58534 | -48.95074 | 34118 ft | 483 kts | 319° |
| 2026-05-05 06:14 | -20.53019 | -48.99201 | 34113 ft | 483 kts | 319° |
| 2026-05-05 06:15 | -20.47489 | -49.03336 | 34114 ft | 486 kts | 319° |
| 2026-05-05 06:15 | -20.41952 | -49.07471 | 34111 ft | 483 kts | 319° |
| 2026-05-05 06:16 | -20.36389 | -49.11624 | 34101 ft | 485 kts | 319° |
| 2026-05-05 06:16 | -20.30847 | -49.15755 | 34107 ft | 484 kts | 319° |
| 2026-05-05 06:17 | -20.25316 | -49.19876 | 34101 ft | 485 kts | 319° |
| 2026-05-05 06:17 | -20.19772 | -49.24002 | 34099 ft | 483 kts | 319° |
| 2026-05-05 06:18 | -20.14220 | -49.28131 | 34102 ft | 485 kts | 319° |
| 2026-05-05 06:18 | -20.08639 | -49.32278 | 34097 ft | 485 kts | 319° |
| 2026-05-05 06:19 | -20.03083 | -49.36402 | 34097 ft | 486 kts | 319° |
| 2026-05-05 06:19 | -19.97467 | -49.40568 | 34101 ft | 488 kts | 319° |
| 2026-05-05 06:20 | -19.91869 | -49.44716 | 34094 ft | 486 kts | 319° |
| 2026-05-05 06:20 | -19.86328 | -49.48820 | 34092 ft | 491 kts | 319° |
| 2026-05-05 06:21 | -19.80722 | -49.52965 | 34093 ft | 486 kts | 318° |
| 2026-05-05 06:21 | -19.75179 | -49.57062 | 34092 ft | 490 kts | 319° |
| 2026-05-05 06:22 | -19.69539 | -49.61228 | 34081 ft | 491 kts | 318° |
| 2026-05-05 06:22 | -19.63938 | -49.65359 | 34101 ft | 489 kts | 318° |
| 2026-05-05 06:23 | -19.58318 | -49.69503 | 34102 ft | 492 kts | 319° |
| 2026-05-05 06:23 | -19.52707 | -49.73636 | 34115 ft | 492 kts | 319° |
| 2026-05-05 06:24 | -19.47087 | -49.77772 | 34113 ft | 493 kts | 319° |
| 2026-05-05 06:24 | -19.41414 | -49.81942 | 34115 ft | 494 kts | 319° |
| 2026-05-05 06:25 | -19.35732 | -49.86115 | 34119 ft | 491 kts | 318° |
| 2026-05-05 06:25 | -19.30068 | -49.90274 | 34119 ft | 493 kts | 318° |
| 2026-05-05 06:26 | -19.24407 | -49.94427 | 34122 ft | 498 kts | 318° |
| 2026-05-05 06:26 | -19.18661 | -49.98637 | 34119 ft | 496 kts | 318° |
| 2026-05-05 06:27 | -19.10085 | -50.04914 | 34114 ft | 498 kts | 318° |
| 2026-05-05 06:28 | -19.04312 | -50.09136 | 34114 ft | 499 kts | 318° |
| 2026-05-05 06:28 | -18.98571 | -50.13329 | 34115 ft | 497 kts | 318° |
| 2026-05-05 06:29 | -18.92832 | -50.17519 | 34110 ft | 498 kts | 318° |
| 2026-05-05 06:29 | -18.87107 | -50.21695 | 34095 ft | 499 kts | 318° |
| 2026-05-05 06:30 | -18.81395 | -50.25855 | 34095 ft | 498 kts | 318° |
| 2026-05-05 06:30 | -18.75699 | -50.30004 | 34093 ft | 499 kts | 318° |
| 2026-05-05 06:31 | -18.69952 | -50.34185 | 34089 ft | 500 kts | 318° |
| 2026-05-05 06:31 | -18.64187 | -50.38375 | 34086 ft | 498 kts | 318° |
| 2026-05-05 06:32 | -18.58406 | -50.42574 | 34094 ft | 501 kts | 318° |
| 2026-05-05 06:32 | -18.52629 | -50.46765 | 34095 ft | 498 kts | 318° |
| 2026-05-05 06:33 | -18.46909 | -50.50912 | 34103 ft | 499 kts | 318° |
| 2026-05-05 06:33 | -18.41095 | -50.55121 | 34106 ft | 500 kts | 318° |
| 2026-05-05 06:34 | -18.35345 | -50.59280 | 34113 ft | 498 kts | 318° |
| 2026-05-05 06:34 | -18.29574 | -50.63451 | 34131 ft | 500 kts | 318° |
| 2026-05-05 06:35 | -18.23807 | -50.67615 | 34156 ft | 498 kts | 318° |
| 2026-05-05 06:35 | -18.18082 | -50.71746 | 34165 ft | 500 kts | 318° |
| 2026-05-05 06:36 | -18.12348 | -50.75879 | 34174 ft | 498 kts | 318° |
| 2026-05-05 06:36 | -18.06567 | -50.80045 | 34167 ft | 500 kts | 318° |
| 2026-05-05 06:37 | -18.00829 | -50.84173 | 34169 ft | 497 kts | 318° |
| 2026-05-05 06:37 | -17.95033 | -50.88343 | 34169 ft | 499 kts | 319° |
| 2026-05-05 06:38 | -17.89267 | -50.92485 | 34167 ft | 496 kts | 318° |
| 2026-05-05 06:38 | -17.83586 | -50.96563 | 34166 ft | 496 kts | 319° |
| 2026-05-05 06:39 | -17.77892 | -51.00649 | 34170 ft | 498 kts | 319° |
| 2026-05-05 06:39 | -17.72170 | -51.04749 | 34177 ft | 495 kts | 318° |
| 2026-05-05 06:40 | -17.66394 | -51.08886 | 34173 ft | 497 kts | 319° |
| 2026-05-05 06:40 | -17.60629 | -51.13010 | 34176 ft | 496 kts | 319° |
| 2026-05-05 06:41 | -17.54871 | -51.17128 | 34175 ft | 496 kts | 319° |
| 2026-05-05 06:41 | -17.49136 | -51.21225 | 34176 ft | 496 kts | 319° |
| 2026-05-05 06:42 | -17.43356 | -51.25351 | 34178 ft | 497 kts | 319° |
| 2026-05-05 06:42 | -17.37584 | -51.29468 | 34178 ft | 496 kts | 319° |
| 2026-05-05 06:43 | -17.31831 | -51.33573 | 34182 ft | 495 kts | 319° |
| 2026-05-05 06:43 | -17.26065 | -51.37688 | 34183 ft | 496 kts | 319° |
| 2026-05-05 06:44 | -17.20323 | -51.41782 | 34178 ft | 495 kts | 319° |
| 2026-05-05 06:44 | -17.14564 | -51.45885 | 34168 ft | 496 kts | 319° |
| 2026-05-05 06:45 | -17.08817 | -51.49976 | 34157 ft | 497 kts | 319° |
| 2026-05-05 06:45 | -17.03072 | -51.54061 | 34146 ft | 495 kts | 319° |
| 2026-05-05 06:46 | -16.97294 | -51.58169 | 34138 ft | 497 kts | 319° |
| 2026-05-05 06:46 | -16.91529 | -51.62262 | 34141 ft | 495 kts | 319° |
| 2026-05-05 06:47 | -16.85840 | -51.66300 | 34138 ft | 495 kts | 320° |
| 2026-05-05 06:47 | -16.80136 | -51.70344 | 34136 ft | 494 kts | 320° |
| 2026-05-05 06:48 | -16.74448 | -51.74371 | 34128 ft | 495 kts | 320° |
| 2026-05-05 06:48 | -16.68715 | -51.78426 | 34126 ft | 494 kts | 320° |
| 2026-05-05 06:49 | -16.63006 | -51.82462 | 34123 ft | 495 kts | 320° |
| 2026-05-05 06:49 | -16.57250 | -51.86528 | 34133 ft | 495 kts | 320° |
| 2026-05-05 06:50 | -16.51507 | -51.90583 | 34134 ft | 495 kts | 320° |
| 2026-05-05 06:50 | -16.45738 | -51.94651 | 34128 ft | 495 kts | 320° |
| 2026-05-05 06:51 | -16.40019 | -51.98683 | 34111 ft | 494 kts | 320° |
| 2026-05-05 06:51 | -16.34256 | -52.02741 | 34106 ft | 494 kts | 320° |
| 2026-05-05 06:52 | -16.28507 | -52.06781 | 34092 ft | 493 kts | 321° |
| 2026-05-05 06:52 | -16.22725 | -52.10684 | 34082 ft | 494 kts | 322° |
| 2026-05-05 06:53 | -16.16914 | -52.14593 | 34078 ft | 495 kts | 322° |
| 2026-05-05 06:53 | -16.11039 | -52.18549 | 34069 ft | 495 kts | 322° |
| 2026-05-05 06:54 | -16.05215 | -52.22469 | 34071 ft | 496 kts | 322° |
| 2026-05-05 06:54 | -15.99367 | -52.26405 | 34052 ft | 494 kts | 322° |
| 2026-05-05 06:55 | -15.93548 | -52.30319 | 34056 ft | 496 kts | 322° |
| 2026-05-05 06:55 | -15.87740 | -52.34222 | 34047 ft | 494 kts | 322° |
| 2026-05-05 06:56 | -15.81932 | -52.38125 | 34052 ft | 495 kts | 322° |
| 2026-05-05 06:56 | -15.76161 | -52.41999 | 34060 ft | 493 kts | 322° |
| 2026-05-05 06:57 | -15.70358 | -52.45893 | 34072 ft | 495 kts | 322° |
| 2026-05-05 06:57 | -15.64576 | -52.49769 | 34083 ft | 494 kts | 322° |
| 2026-05-05 06:58 | -15.58711 | -52.53699 | 34081 ft | 495 kts | 322° |
| 2026-05-05 06:58 | -15.52906 | -52.57585 | 34076 ft | 495 kts | 322° |
| 2026-05-05 06:59 | -15.47077 | -52.61485 | 34072 ft | 494 kts | 322° |
| 2026-05-05 06:59 | -15.41249 | -52.65382 | 34072 ft | 495 kts | 323° |
| 2026-05-05 07:00 | -15.35450 | -52.69257 | 34077 ft | 495 kts | 323° |
| 2026-05-05 07:00 | -15.29658 | -52.73125 | 34075 ft | 495 kts | 323° |
| 2026-05-05 07:01 | -15.23855 | -52.76997 | 34075 ft | 495 kts | 323° |
| 2026-05-05 07:01 | -15.18007 | -52.80897 | 34077 ft | 496 kts | 323° |
| 2026-05-05 07:02 | -15.12155 | -52.84797 | 34077 ft | 496 kts | 323° |
| 2026-05-05 07:02 | -15.06288 | -52.88703 | 34080 ft | 497 kts | 323° |
| 2026-05-05 07:03 | -15.00443 | -52.92593 | 34084 ft | 496 kts | 323° |
| 2026-05-05 07:03 | -14.94561 | -52.96505 | 34087 ft | 496 kts | 323° |
| 2026-05-05 07:04 | -14.88744 | -53.00371 | 34086 ft | 496 kts | 323° |
| 2026-05-05 07:04 | -14.82928 | -53.04234 | 34087 ft | 495 kts | 323° |
| 2026-05-05 07:05 | -14.77117 | -53.08091 | 34089 ft | 496 kts | 323° |
| 2026-05-05 07:05 | -14.71279 | -53.11965 | 34092 ft | 498 kts | 323° |
| 2026-05-05 07:06 | -14.65243 | -53.15581 | 34094 ft | 499 kts | 327° |
| 2026-05-05 07:06 | -14.59164 | -53.19093 | 34095 ft | 500 kts | 327° |
| 2026-05-05 07:07 | -14.53077 | -53.22623 | 34095 ft | 500 kts | 327° |
| 2026-05-05 07:07 | -14.46949 | -53.26187 | 34095 ft | 499 kts | 327° |
| 2026-05-05 07:08 | -14.40849 | -53.29737 | 34090 ft | 499 kts | 327° |
| 2026-05-05 07:08 | -14.34755 | -53.33284 | 34085 ft | 498 kts | 327° |
| 2026-05-05 07:09 | -14.28672 | -53.36826 | 34082 ft | 499 kts | 327° |
| 2026-05-05 07:09 | -14.22568 | -53.40377 | 34077 ft | 500 kts | 327° |
| 2026-05-05 07:10 | -14.16435 | -53.43944 | 34072 ft | 500 kts | 328° |
| 2026-05-05 07:10 | -14.10344 | -53.47484 | 34066 ft | 501 kts | 328° |
| 2026-05-05 07:11 | -14.04205 | -53.51050 | 34060 ft | 500 kts | 328° |
| 2026-05-05 07:11 | -13.98069 | -53.54613 | 34063 ft | 499 kts | 328° |
| 2026-05-05 07:12 | -13.91964 | -53.58155 | 34064 ft | 500 kts | 328° |
| 2026-05-05 07:12 | -13.85887 | -53.61682 | 34060 ft | 500 kts | 328° |
| 2026-05-05 07:13 | -13.79836 | -53.65192 | 34060 ft | 500 kts | 328° |
| 2026-05-05 07:13 | -13.73758 | -53.68715 | 34060 ft | 500 kts | 328° |
| 2026-05-05 07:14 | -13.67690 | -53.72230 | 34061 ft | 499 kts | 328° |
| 2026-05-05 07:14 | -13.61628 | -53.75740 | 34058 ft | 500 kts | 328° |
| 2026-05-05 07:15 | -13.55514 | -53.79278 | 34055 ft | 500 kts | 328° |
| 2026-05-05 07:15 | -13.49372 | -53.82830 | 34053 ft | 499 kts | 328° |
| 2026-05-05 07:16 | -13.43260 | -53.86362 | 34055 ft | 499 kts | 328° |
| 2026-05-05 07:16 | -13.37136 | -53.89899 | 34061 ft | 499 kts | 328° |
| 2026-05-05 07:17 | -13.31016 | -53.93432 | 34060 ft | 499 kts | 328° |
| 2026-05-05 07:17 | -13.24929 | -53.96944 | 34056 ft | 498 kts | 328° |
| 2026-05-05 07:18 | -13.18811 | -54.00471 | 34052 ft | 499 kts | 328° |
| 2026-05-05 07:18 | -13.12717 | -54.03983 | 34054 ft | 498 kts | 329° |
| 2026-05-05 07:19 | -13.06609 | -54.07501 | 34043 ft | 499 kts | 329° |
| 2026-05-05 07:19 | -13.00477 | -54.11031 | 34034 ft | 499 kts | 329° |
| 2026-05-05 07:20 | -12.94409 | -54.14521 | 34033 ft | 498 kts | 329° |
| 2026-05-05 07:20 | -12.88324 | -54.18016 | 34030 ft | 498 kts | 329° |
| 2026-05-05 07:21 | -12.82292 | -54.21479 | 34029 ft | 497 kts | 329° |
| 2026-05-05 07:21 | -12.76225 | -54.24961 | 34028 ft | 497 kts | 329° |
| 2026-05-05 07:22 | -12.70148 | -54.28446 | 34027 ft | 497 kts | 329° |
| 2026-05-05 07:22 | -12.64082 | -54.31923 | 34028 ft | 497 kts | 329° |
| 2026-05-05 07:23 | -12.58006 | -54.35405 | 34028 ft | 497 kts | 329° |
| 2026-05-05 07:23 | -12.51875 | -54.38916 | 34028 ft | 496 kts | 329° |
| 2026-05-05 07:24 | -12.45824 | -54.42379 | 34028 ft | 495 kts | 329° |
| 2026-05-05 07:24 | -12.39747 | -54.45857 | 34028 ft | 495 kts | 329° |
| 2026-05-05 07:25 | -12.33659 | -54.49337 | 34028 ft | 496 kts | 329° |
| 2026-05-05 07:25 | -12.27560 | -54.52823 | 34029 ft | 496 kts | 329° |
| 2026-05-05 07:26 | -12.21520 | -54.56273 | 34032 ft | 496 kts | 329° |
| 2026-05-05 07:26 | -12.15427 | -54.59752 | 34035 ft | 496 kts | 329° |
| 2026-05-05 07:27 | -12.09371 | -54.63208 | 34039 ft | 495 kts | 329° |
| 2026-05-05 07:27 | -12.03329 | -54.66654 | 34047 ft | 493 kts | 329° |
| 2026-05-05 07:28 | -11.97330 | -54.70074 | 34051 ft | 493 kts | 329° |
| 2026-05-05 07:28 | -11.91351 | -54.73480 | 34052 ft | 493 kts | 329° |
| 2026-05-05 07:29 | -11.85329 | -54.76910 | 34049 ft | 494 kts | 329° |
| 2026-05-05 07:29 | -11.79318 | -54.80331 | 34046 ft | 494 kts | 329° |
| 2026-05-05 07:30 | -11.73317 | -54.83745 | 34046 ft | 494 kts | 329° |
| 2026-05-05 07:30 | -11.64266 | -54.88891 | 34048 ft | 492 kts | 329° |
| 2026-05-05 07:31 | -11.58195 | -54.92341 | 34047 ft | 491 kts | 330° |
| 2026-05-05 07:31 | -11.52154 | -54.95771 | 34041 ft | 491 kts | 330° |
| 2026-05-05 07:32 | -11.46154 | -54.99176 | 34034 ft | 490 kts | 330° |
| 2026-05-05 07:32 | -11.40092 | -55.02616 | 34042 ft | 490 kts | 330° |
| 2026-05-05 07:33 | -11.34076 | -55.06027 | 34045 ft | 490 kts | 330° |
| 2026-05-05 07:33 | -11.28072 | -55.09431 | 34050 ft | 491 kts | 330° |
| 2026-05-05 07:34 | -11.22044 | -55.12845 | 34047 ft | 491 kts | 330° |
| 2026-05-05 07:34 | -11.16002 | -55.16266 | 34049 ft | 491 kts | 330° |
| 2026-05-05 07:35 | -11.10024 | -55.19650 | 34053 ft | 491 kts | 330° |
| 2026-05-05 07:35 | -11.03974 | -55.23072 | 34051 ft | 492 kts | 330° |
| 2026-05-05 07:36 | -10.97932 | -55.26487 | 34051 ft | 493 kts | 330° |
| 2026-05-05 07:36 | -10.91867 | -55.29913 | 34048 ft | 493 kts | 330° |
| 2026-05-05 07:37 | -10.85837 | -55.33317 | 34042 ft | 492 kts | 330° |
| 2026-05-05 07:37 | -10.79872 | -55.36684 | 34040 ft | 492 kts | 330° |
| 2026-05-05 07:38 | -10.73845 | -55.40084 | 34034 ft | 492 kts | 330° |
| 2026-05-05 07:38 | -10.67799 | -55.43493 | 34031 ft | 493 kts | 330° |
| 2026-05-05 07:39 | -10.61753 | -55.46901 | 34034 ft | 493 kts | 330° |
| 2026-05-05 07:39 | -10.55669 | -55.50328 | 34030 ft | 494 kts | 330° |
| 2026-05-05 07:40 | -10.49650 | -55.53717 | 34028 ft | 494 kts | 330° |
| 2026-05-05 07:40 | -10.43555 | -55.57148 | 34024 ft | 494 kts | 330° |
| 2026-05-05 07:41 | -10.37485 | -55.60563 | 34020 ft | 494 kts | 330° |
| 2026-05-05 07:41 | -10.31437 | -55.63964 | 34012 ft | 495 kts | 330° |
| 2026-05-05 07:42 | -10.25358 | -55.67381 | 34009 ft | 496 kts | 330° |
| 2026-05-05 07:42 | -10.19332 | -55.70766 | 34006 ft | 495 kts | 330° |
| 2026-05-05 07:43 | -10.13294 | -55.74157 | 34009 ft | 496 kts | 330° |
| 2026-05-05 07:43 | -10.07213 | -55.77571 | 34013 ft | 495 kts | 330° |
| 2026-05-05 07:44 | -10.01121 | -55.80989 | 34021 ft | 495 kts | 330° |
| 2026-05-05 07:44 | -9.94971 | -55.84438 | 34021 ft | 497 kts | 330° |
| 2026-05-05 07:45 | -9.88883 | -55.87851 | 34018 ft | 497 kts | 330° |
| 2026-05-05 07:45 | -9.82826 | -55.91245 | 34013 ft | 497 kts | 330° |
| 2026-05-05 07:46 | -9.76772 | -55.94636 | 34013 ft | 496 kts | 330° |
| 2026-05-05 07:46 | -9.70691 | -55.98042 | 34014 ft | 498 kts | 330° |
| 2026-05-05 07:47 | -9.64551 | -56.01431 | 34018 ft | 498 kts | 330° |
| 2026-05-05 07:47 | -9.58385 | -56.04787 | 34019 ft | 498 kts | 330° |
| 2026-05-05 07:48 | -9.52218 | -56.08145 | 34018 ft | 497 kts | 330° |
| 2026-05-05 07:48 | -9.46115 | -56.11468 | 34019 ft | 497 kts | 330° |
| 2026-05-05 07:49 | -9.39959 | -56.14820 | 34012 ft | 497 kts | 330° |
| 2026-05-05 07:49 | -9.33779 | -56.18184 | 34009 ft | 498 kts | 330° |
| 2026-05-05 07:50 | -9.27632 | -56.21529 | 34006 ft | 497 kts | 330° |
| 2026-05-05 07:50 | -9.21457 | -56.24889 | 34004 ft | 498 kts | 330° |
| 2026-05-05 07:51 | -9.15341 | -56.28215 | 34007 ft | 499 kts | 330° |
| 2026-05-05 07:51 | -9.09132 | -56.31590 | 34008 ft | 498 kts | 330° |
| 2026-05-05 07:52 | -9.02980 | -56.34933 | 34006 ft | 498 kts | 330° |
| 2026-05-05 07:52 | -8.96844 | -56.38266 | 34004 ft | 497 kts | 330° |
| 2026-05-05 07:53 | -8.90694 | -56.41605 | 33997 ft | 497 kts | 330° |
| 2026-05-05 07:53 | -8.84549 | -56.44940 | 33994 ft | 497 kts | 330° |
| 2026-05-05 07:54 | -8.78456 | -56.48246 | 33992 ft | 497 kts | 330° |
| 2026-05-05 07:54 | -8.72331 | -56.51569 | 33993 ft | 498 kts | 330° |
| 2026-05-05 07:55 | -8.66148 | -56.54921 | 33992 ft | 497 kts | 330° |
| 2026-05-05 07:55 | -8.60006 | -56.58250 | 33999 ft | 499 kts | 330° |
| 2026-05-05 07:56 | -8.53828 | -56.61596 | 34005 ft | 498 kts | 330° |
| 2026-05-05 07:56 | -8.47681 | -56.64925 | 34013 ft | 497 kts | 330° |
| 2026-05-05 07:57 | -8.41550 | -56.68244 | 34017 ft | 497 kts | 331° |
| 2026-05-05 07:57 | -8.35432 | -56.71555 | 34018 ft | 498 kts | 331° |
| 2026-05-05 07:58 | -8.29328 | -56.74857 | 34018 ft | 497 kts | 331° |
| 2026-05-05 07:58 | -8.23196 | -56.78173 | 34018 ft | 498 kts | 331° |
| 2026-05-05 07:59 | -8.17007 | -56.81519 | 34018 ft | 499 kts | 331° |
| 2026-05-05 07:59 | -8.10858 | -56.84841 | 34017 ft | 497 kts | 331° |
| 2026-05-05 08:00 | -8.04721 | -56.88157 | 34015 ft | 499 kts | 331° |
| 2026-05-05 08:00 | -7.98532 | -56.91497 | 34015 ft | 498 kts | 331° |
| 2026-05-05 08:01 | -7.92351 | -56.94833 | 34010 ft | 499 kts | 331° |
| 2026-05-05 08:01 | -7.86212 | -56.98145 | 34009 ft | 498 kts | 331° |
| 2026-05-05 08:02 | -7.80092 | -57.01445 | 34009 ft | 499 kts | 331° |
| 2026-05-05 08:02 | -7.73973 | -57.04745 | 34011 ft | 498 kts | 331° |
| 2026-05-05 08:03 | -7.67801 | -57.08071 | 34006 ft | 498 kts | 331° |
| 2026-05-05 08:03 | -7.61630 | -57.11395 | 34001 ft | 499 kts | 331° |
| 2026-05-05 08:04 | -7.55483 | -57.14706 | 33996 ft | 500 kts | 331° |
| 2026-05-05 08:04 | -7.49281 | -57.18045 | 33995 ft | 499 kts | 331° |
| 2026-05-05 08:05 | -7.43115 | -57.21364 | 33994 ft | 500 kts | 331° |
| 2026-05-05 08:05 | -7.36926 | -57.24694 | 33998 ft | 498 kts | 331° |
| 2026-05-05 08:06 | -7.30760 | -57.28011 | 34003 ft | 498 kts | 331° |
| 2026-05-05 08:06 | -7.24588 | -57.31329 | 34009 ft | 498 kts | 331° |
| 2026-05-05 08:07 | -7.18442 | -57.34633 | 34011 ft | 499 kts | 332° |
| 2026-05-05 08:07 | -7.12257 | -57.37957 | 34006 ft | 500 kts | 331° |
| 2026-05-05 08:08 | -7.06031 | -57.41302 | 33999 ft | 499 kts | 331° |
| 2026-05-05 08:08 | -6.99859 | -57.44617 | 33996 ft | 499 kts | 331° |
| 2026-05-05 08:09 | -6.93672 | -57.47939 | 33994 ft | 499 kts | 332° |
| 2026-05-05 08:09 | -6.87463 | -57.51270 | 33986 ft | 499 kts | 331° |
| 2026-05-05 08:10 | -6.81340 | -57.54556 | 33979 ft | 499 kts | 331° |
| 2026-05-05 08:10 | -6.75206 | -57.57847 | 33975 ft | 498 kts | 331° |
| 2026-05-05 08:11 | -6.69015 | -57.61166 | 33974 ft | 498 kts | 331° |
| 2026-05-05 08:11 | -6.62839 | -57.64478 | 33968 ft | 498 kts | 331° |
| 2026-05-05 08:12 | -6.56731 | -57.67751 | 33964 ft | 499 kts | 331° |
| 2026-05-05 08:12 | -6.50587 | -57.71043 | 33963 ft | 499 kts | 331° |
| 2026-05-05 08:13 | -6.44435 | -57.74339 | 33964 ft | 499 kts | 331° |
| 2026-05-05 08:13 | -6.38249 | -57.77651 | 33971 ft | 498 kts | 331° |
| 2026-05-05 08:14 | -6.32077 | -57.80955 | 33980 ft | 498 kts | 331° |
| 2026-05-05 08:14 | -6.25909 | -57.84257 | 33979 ft | 499 kts | 331° |
| 2026-05-05 08:15 | -6.19726 | -57.87565 | 33981 ft | 498 kts | 331° |
| 2026-05-05 08:15 | -6.13557 | -57.90865 | 33985 ft | 500 kts | 331° |
| 2026-05-05 08:16 | -6.07354 | -57.94182 | 33987 ft | 500 kts | 331° |
| 2026-05-05 08:16 | -6.01126 | -57.97512 | 33988 ft | 500 kts | 331° |
| 2026-05-05 08:17 | -5.94937 | -58.00820 | 33991 ft | 501 kts | 332° |
| 2026-05-05 08:17 | -5.88748 | -58.04127 | 33986 ft | 500 kts | 332° |
| 2026-05-05 08:18 | -5.82576 | -58.07424 | 33983 ft | 500 kts | 331° |
| 2026-05-05 08:18 | -5.76438 | -58.10702 | 33986 ft | 500 kts | 332° |
| 2026-05-05 08:19 | -5.70260 | -58.14001 | 33986 ft | 501 kts | 332° |
| 2026-05-05 08:19 | -5.64058 | -58.17312 | 33985 ft | 500 kts | 332° |
| 2026-05-05 08:20 | -5.57868 | -58.20616 | 33983 ft | 500 kts | 332° |
| 2026-05-05 08:20 | -5.51690 | -58.23912 | 33981 ft | 499 kts | 332° |
| 2026-05-05 08:21 | -5.45495 | -58.27217 | 33979 ft | 499 kts | 332° |
| 2026-05-05 08:21 | -5.39303 | -58.30519 | 33977 ft | 499 kts | 332° |
| 2026-05-05 08:22 | -5.33061 | -58.33847 | 33977 ft | 498 kts | 332° |
| 2026-05-05 08:22 | -5.26900 | -58.37132 | 33973 ft | 498 kts | 332° |
| 2026-05-05 08:23 | -5.20700 | -58.40436 | 33976 ft | 498 kts | 332° |
| 2026-05-05 08:23 | -5.14524 | -58.43726 | 33972 ft | 498 kts | 332° |
| 2026-05-05 08:24 | -5.08350 | -58.47015 | 33972 ft | 497 kts | 332° |
| 2026-05-05 08:24 | -5.02186 | -58.50298 | 33964 ft | 497 kts | 332° |
| 2026-05-05 08:25 | -4.95988 | -58.53599 | 33958 ft | 497 kts | 332° |
| 2026-05-05 08:25 | -4.89809 | -58.56888 | 33958 ft | 498 kts | 332° |
| 2026-05-05 08:26 | -4.83661 | -58.60160 | 33959 ft | 497 kts | 332° |
| 2026-05-05 08:26 | -4.77541 | -58.63417 | 33959 ft | 497 kts | 332° |
| 2026-05-05 08:27 | -4.71437 | -58.66665 | 33957 ft | 498 kts | 332° |
| 2026-05-05 08:27 | -4.65315 | -58.69921 | 33957 ft | 498 kts | 332° |
| 2026-05-05 08:28 | -4.59175 | -58.73187 | 33958 ft | 498 kts | 332° |
| 2026-05-05 08:28 | -4.52954 | -58.76477 | 33957 ft | 498 kts | 333° |
| 2026-05-05 08:29 | -4.46749 | -58.79697 | 33959 ft | 498 kts | 333° |
| 2026-05-05 08:30 | -4.37434 | -58.84534 | 33956 ft | 498 kts | 333° |
| 2026-05-05 08:30 | -4.31249 | -58.87747 | 33956 ft | 499 kts | 333° |
| 2026-05-05 08:31 | -4.24994 | -58.90995 | 33954 ft | 499 kts | 333° |
| 2026-05-05 08:31 | -4.18795 | -58.94215 | 33954 ft | 500 kts | 333° |
| 2026-05-05 08:32 | -4.12538 | -58.97465 | 33954 ft | 501 kts | 333° |
| 2026-05-05 08:32 | -4.06320 | -59.00693 | 33954 ft | 499 kts | 333° |
| 2026-05-05 08:33 | -4.00084 | -59.03931 | 33955 ft | 500 kts | 333° |
| 2026-05-05 08:33 | -3.93870 | -59.07158 | 33956 ft | 500 kts | 333° |
| 2026-05-05 08:34 | -3.87636 | -59.10393 | 33954 ft | 500 kts | 333° |
| 2026-05-05 08:34 | -3.81448 | -59.13605 | 33954 ft | 501 kts | 333° |
| 2026-05-05 08:35 | -3.75267 | -59.16812 | 33953 ft | 500 kts | 333° |
| 2026-05-05 08:35 | -3.69011 | -59.20058 | 33953 ft | 500 kts | 333° |
| 2026-05-05 08:36 | -3.62818 | -59.23270 | 33953 ft | 499 kts | 333° |
| 2026-05-05 08:36 | -3.56610 | -59.26490 | 33953 ft | 500 kts | 333° |
| 2026-05-05 08:37 | -3.50399 | -59.29710 | 33954 ft | 500 kts | 333° |
| 2026-05-05 08:37 | -3.44149 | -59.32951 | 33955 ft | 500 kts | 333° |
| 2026-05-05 08:38 | -3.37968 | -59.36155 | 33957 ft | 500 kts | 333° |
| 2026-05-05 08:38 | -3.31724 | -59.39397 | 33965 ft | 499 kts | 333° |
| 2026-05-05 08:39 | -3.25535 | -59.42612 | 33973 ft | 500 kts | 333° |
| 2026-05-05 08:39 | -3.19313 | -59.45842 | 33975 ft | 499 kts | 333° |
| 2026-05-05 08:40 | -3.13044 | -59.49094 | 33976 ft | 499 kts | 333° |
| 2026-05-05 08:40 | -3.06814 | -59.52323 | 33977 ft | 499 kts | 333° |
| 2026-05-05 08:41 | -3.00600 | -59.55595 | 33974 ft | 500 kts | 333° |
| 2026-05-05 08:41 | -2.94419 | -59.58885 | 33973 ft | 500 kts | 333° |
| 2026-05-05 08:42 | -2.88218 | -59.62185 | 33968 ft | 500 kts | 333° |
| 2026-05-05 08:42 | -2.82066 | -59.65458 | 33962 ft | 499 kts | 333° |
| 2026-05-05 08:43 | -2.75934 | -59.68718 | 33957 ft | 500 kts | 333° |
| 2026-05-05 08:43 | -2.69795 | -59.71981 | 33956 ft | 499 kts | 333° |
| 2026-05-05 08:44 | -2.63606 | -59.75270 | 33956 ft | 500 kts | 333° |
| 2026-05-05 08:44 | -2.57414 | -59.78561 | 33956 ft | 499 kts | 333° |
| 2026-05-05 08:45 | -2.51196 | -59.81864 | 33957 ft | 499 kts | 333° |
| 2026-05-05 08:45 | -2.45016 | -59.85147 | 33960 ft | 500 kts | 333° |
| 2026-05-05 08:46 | -2.38816 | -59.88440 | 33962 ft | 500 kts | 333° |
| 2026-05-05 08:46 | -2.32646 | -59.91717 | 33957 ft | 499 kts | 333° |
| 2026-05-05 08:47 | -2.26464 | -59.95017 | 33949 ft | 499 kts | 330° |
| 2026-05-05 08:47 | -2.21007 | -59.99282 | 33963 ft | 500 kts | 317° |
| 2026-05-05 08:48 | -2.15973 | -60.04094 | 33960 ft | 501 kts | 316° |
| 2026-05-05 08:48 | -2.10924 | -60.08929 | 33959 ft | 500 kts | 316° |
| 2026-05-05 08:49 | -2.05864 | -60.13773 | 33959 ft | 501 kts | 316° |
| 2026-05-05 08:49 | -2.00820 | -60.18597 | 33959 ft | 499 kts | 316° |
| 2026-05-05 08:50 | -1.95743 | -60.23444 | 33961 ft | 500 kts | 316° |
| 2026-05-05 08:50 | -1.90680 | -60.28278 | 33961 ft | 500 kts | 316° |
| 2026-05-05 08:51 | -1.85656 | -60.33073 | 33960 ft | 499 kts | 316° |
| 2026-05-05 08:51 | -1.80622 | -60.37878 | 33960 ft | 500 kts | 316° |
| 2026-05-05 08:52 | -1.75565 | -60.42704 | 33961 ft | 500 kts | 316° |
| 2026-05-05 08:52 | -1.70495 | -60.47543 | 33959 ft | 499 kts | 317° |
| 2026-05-05 08:53 | -1.65437 | -60.52369 | 33961 ft | 499 kts | 317° |
| 2026-05-05 08:53 | -1.60347 | -60.57226 | 33961 ft | 500 kts | 317° |
| 2026-05-05 08:54 | -1.55292 | -60.62050 | 33961 ft | 500 kts | 317° |
| 2026-05-05 08:54 | -1.50236 | -60.66873 | 33958 ft | 498 kts | 317° |
| 2026-05-05 08:55 | -1.45226 | -60.71652 | 33958 ft | 499 kts | 317° |
| 2026-05-05 08:55 | -1.40194 | -60.76452 | 33952 ft | 499 kts | 317° |
| 2026-05-05 08:56 | -1.35145 | -60.81281 | 33951 ft | 498 kts | 316° |
| 2026-05-05 08:56 | -1.30223 | -60.86181 | 33943 ft | 498 kts | 316° |
| 2026-05-05 08:57 | -1.25283 | -60.91109 | 33949 ft | 497 kts | 316° |
| 2026-05-05 08:57 | -1.20345 | -60.96028 | 33945 ft | 498 kts | 316° |
| 2026-05-05 08:58 | -1.15409 | -61.00942 | 33945 ft | 498 kts | 316° |
| 2026-05-05 08:58 | -1.10479 | -61.05847 | 33944 ft | 499 kts | 316° |
| 2026-05-05 08:59 | -1.05516 | -61.10784 | 33940 ft | 497 kts | 316° |
| 2026-05-05 08:59 | -1.00564 | -61.15709 | 33950 ft | 497 kts | 316° |
| 2026-05-05 09:00 | -0.95617 | -61.20628 | 33957 ft | 497 kts | 316° |
| 2026-05-05 09:00 | -0.90684 | -61.25534 | 33955 ft | 497 kts | 316° |
| 2026-05-05 09:01 | -0.85779 | -61.30411 | 33959 ft | 498 kts | 316° |
| 2026-05-05 09:01 | -0.80857 | -61.35305 | 33956 ft | 498 kts | 316° |
| 2026-05-05 09:02 | -0.75948 | -61.40187 | 33956 ft | 499 kts | 316° |
| 2026-05-05 09:02 | -0.70984 | -61.45122 | 33956 ft | 498 kts | 316° |
| 2026-05-05 09:03 | -0.66045 | -61.50032 | 33957 ft | 498 kts | 316° |
| 2026-05-05 09:03 | -0.61093 | -61.54955 | 33954 ft | 499 kts | 316° |
| 2026-05-05 09:04 | -0.56106 | -61.59912 | 33955 ft | 499 kts | 316° |
| 2026-05-05 09:04 | -0.51142 | -61.64847 | 33956 ft | 499 kts | 316° |
| 2026-05-05 09:05 | -0.46215 | -61.69745 | 33953 ft | 498 kts | 316° |
| 2026-05-05 09:05 | -0.41314 | -61.74617 | 33954 ft | 498 kts | 316° |
| 2026-05-05 09:06 | -0.36384 | -61.79518 | 33954 ft | 498 kts | 316° |
| 2026-05-05 09:06 | -0.31425 | -61.84447 | 33954 ft | 498 kts | 316° |
| 2026-05-05 09:07 | -0.26486 | -61.89356 | 33952 ft | 497 kts | 316° |
| 2026-05-05 09:07 | -0.21520 | -61.94292 | 33944 ft | 496 kts | 316° |
| 2026-05-05 09:08 | -0.16595 | -61.99188 | 33939 ft | 497 kts | 316° |
| 2026-05-05 09:08 | -0.11658 | -62.04094 | 33940 ft | 497 kts | 316° |
| 2026-05-05 09:09 | -0.06714 | -62.09009 | 33940 ft | 497 kts | 316° |
| 2026-05-05 09:09 | -0.01764 | -62.13930 | 33935 ft | 497 kts | 316° |
| 2026-05-05 09:10 | 0.03149 | -62.18813 | 33940 ft | 496 kts | 316° |
| 2026-05-05 09:10 | 0.08098 | -62.23732 | 33941 ft | 496 kts | 316° |
| 2026-05-05 09:11 | 0.12998 | -62.28602 | 33946 ft | 497 kts | 316° |
| 2026-05-05 09:11 | 0.17909 | -62.33483 | 33956 ft | 498 kts | 316° |
| 2026-05-05 09:12 | 0.22811 | -62.38356 | 33958 ft | 498 kts | 316° |
| 2026-05-05 09:12 | 0.27768 | -62.43284 | 33958 ft | 498 kts | 316° |
| 2026-05-05 09:13 | 0.32711 | -62.48197 | 33960 ft | 499 kts | 316° |
| 2026-05-05 09:13 | 0.37668 | -62.53125 | 33962 ft | 498 kts | 316° |
| 2026-05-05 09:14 | 0.42614 | -62.58041 | 33961 ft | 499 kts | 316° |
| 2026-05-05 09:14 | 0.47618 | -62.63015 | 33960 ft | 499 kts | 316° |
| 2026-05-05 09:15 | 0.52571 | -62.67939 | 33956 ft | 501 kts | 316° |
| 2026-05-05 09:15 | 0.57490 | -62.72828 | 33956 ft | 501 kts | 316° |
| 2026-05-05 09:16 | 0.62458 | -62.77768 | 33957 ft | 501 kts | 316° |
| 2026-05-05 09:16 | 0.67430 | -62.82711 | 33958 ft | 502 kts | 316° |
| 2026-05-05 09:17 | 0.72422 | -62.87674 | 33957 ft | 502 kts | 316° |
| 2026-05-05 09:17 | 0.77403 | -62.92626 | 33957 ft | 502 kts | 316° |
| 2026-05-05 09:18 | 0.82401 | -62.97596 | 33960 ft | 502 kts | 316° |
| 2026-05-05 09:18 | 0.87381 | -63.02546 | 33960 ft | 503 kts | 316° |
| 2026-05-05 09:19 | 0.92408 | -63.07545 | 33964 ft | 502 kts | 316° |
| 2026-05-05 09:19 | 0.97403 | -63.12513 | 33964 ft | 503 kts | 316° |
| 2026-05-05 09:20 | 1.02391 | -63.17473 | 33966 ft | 501 kts | 316° |
| 2026-05-05 09:20 | 1.07364 | -63.22418 | 33971 ft | 501 kts | 316° |
| 2026-05-05 09:21 | 1.12306 | -63.27332 | 33968 ft | 500 kts | 316° |
| 2026-05-05 09:21 | 1.17254 | -63.32254 | 33967 ft | 499 kts | 316° |
| 2026-05-05 09:22 | 1.22379 | -63.36864 | 33975 ft | 498 kts | 323° |
| 2026-05-05 09:22 | 1.27943 | -63.41076 | 33975 ft | 498 kts | 324° |
| 2026-05-05 09:23 | 1.33489 | -63.45264 | 33979 ft | 498 kts | 324° |
| 2026-05-05 09:23 | 1.39053 | -63.49469 | 33976 ft | 499 kts | 324° |
| 2026-05-05 09:24 | 1.44652 | -63.53704 | 33978 ft | 496 kts | 324° |
| 2026-05-05 09:24 | 1.50209 | -63.57907 | 33981 ft | 496 kts | 324° |
| 2026-05-05 09:25 | 1.55767 | -63.62111 | 33985 ft | 496 kts | 324° |
| 2026-05-05 09:25 | 1.61316 | -63.66310 | 33989 ft | 495 kts | 324° |
| 2026-05-05 09:26 | 1.66821 | -63.70476 | 33993 ft | 495 kts | 324° |
| 2026-05-05 09:26 | 1.72296 | -63.74620 | 33996 ft | 495 kts | 324° |
| 2026-05-05 09:27 | 1.77855 | -63.78827 | 34001 ft | 495 kts | 324° |
| 2026-05-05 09:27 | 1.83349 | -63.82985 | 34015 ft | 493 kts | 324° |
| 2026-05-05 09:28 | 1.88892 | -63.87181 | 34027 ft | 493 kts | 324° |
| 2026-05-05 09:28 | 1.94392 | -63.91345 | 34031 ft | 493 kts | 324° |
| 2026-05-05 09:29 | 1.99937 | -63.95536 | 34034 ft | 493 kts | 326° |
| 2026-05-05 09:29 | 2.05654 | -63.99313 | 34044 ft | 494 kts | 328° |
| 2026-05-05 09:30 | 2.11428 | -64.03069 | 34057 ft | 493 kts | 328° |
| 2026-05-05 09:30 | 2.17183 | -64.06832 | 34057 ft | 493 kts | 328° |
| 2026-05-05 09:31 | 2.22895 | -64.10580 | 34057 ft | 492 kts | 328° |
| 2026-05-05 09:31 | 2.28661 | -64.14368 | 34056 ft | 492 kts | 328° |
| 2026-05-05 09:32 | 2.34452 | -64.18179 | 34069 ft | 494 kts | 328° |
| 2026-05-05 09:32 | 2.40233 | -64.21984 | 34074 ft | 494 kts | 328° |
| 2026-05-05 09:33 | 2.46056 | -64.25818 | 34076 ft | 494 kts | 328° |
| 2026-05-05 09:33 | 2.51844 | -64.29630 | 34093 ft | 493 kts | 328° |
| 2026-05-05 09:34 | 2.57649 | -64.33454 | 34092 ft | 493 kts | 328° |
| 2026-05-05 09:34 | 2.63405 | -64.37247 | 34085 ft | 493 kts | 328° |
| 2026-05-05 09:35 | 2.69183 | -64.41054 | 34078 ft | 493 kts | 328° |
| 2026-05-05 09:35 | 2.77891 | -64.46793 | 34071 ft | 493 kts | 328° |
| 2026-05-05 09:36 | 2.83644 | -64.50584 | 34073 ft | 493 kts | 328° |
| 2026-05-05 09:36 | 2.89462 | -64.54420 | 34075 ft | 493 kts | 328° |
| 2026-05-05 09:37 | 2.95252 | -64.58237 | 34067 ft | 492 kts | 328° |
| 2026-05-05 09:37 | 3.01003 | -64.62030 | 34082 ft | 492 kts | 328° |
| 2026-05-05 09:38 | 3.06763 | -64.65828 | 34080 ft | 492 kts | 328° |
| 2026-05-05 09:38 | 3.12476 | -64.69596 | 34092 ft | 492 kts | 328° |
| 2026-05-05 09:39 | 3.18227 | -64.73390 | 34106 ft | 492 kts | 328° |
| 2026-05-05 09:39 | 3.23948 | -64.77165 | 34133 ft | 492 kts | 328° |
| 2026-05-05 09:40 | 3.29674 | -64.80943 | 34131 ft | 491 kts | 328° |
| 2026-05-05 09:40 | 3.35408 | -64.84726 | 34112 ft | 491 kts | 328° |
| 2026-05-05 09:41 | 3.41157 | -64.88521 | 34088 ft | 491 kts | 328° |
| 2026-05-05 09:41 | 3.46911 | -64.92320 | 34088 ft | 492 kts | 327° |
| 2026-05-05 09:42 | 3.52688 | -64.96133 | 34088 ft | 492 kts | 327° |
| 2026-05-05 09:42 | 3.58451 | -64.99939 | 34089 ft | 492 kts | 328° |
| 2026-05-05 09:43 | 3.64216 | -65.03746 | 34097 ft | 491 kts | 327° |
| 2026-05-05 09:43 | 3.69987 | -65.07558 | 34111 ft | 491 kts | 327° |
| 2026-05-05 09:44 | 3.75726 | -65.11349 | 34100 ft | 491 kts | 327° |
| 2026-05-05 09:44 | 3.81509 | -65.15170 | 34125 ft | 491 kts | 327° |
| 2026-05-05 09:45 | 3.87235 | -65.18954 | 34130 ft | 491 kts | 327° |
| 2026-05-05 09:45 | 3.92981 | -65.22752 | 34135 ft | 491 kts | 327° |
| 2026-05-05 09:46 | 3.98752 | -65.26566 | 34154 ft | 490 kts | 327° |
| 2026-05-05 09:46 | 4.04459 | -65.30340 | 34173 ft | 489 kts | 327° |
| 2026-05-05 09:47 | 4.10188 | -65.34129 | 34192 ft | 489 kts | 327° |
| 2026-05-05 09:47 | 4.15873 | -65.37888 | 34219 ft | 489 kts | 327° |
| 2026-05-05 09:48 | 4.21588 | -65.41669 | 34237 ft | 488 kts | 327° |
| 2026-05-05 09:48 | 4.27250 | -65.45415 | 34253 ft | 488 kts | 327° |
| 2026-05-05 09:49 | 4.32965 | -65.49197 | 34237 ft | 488 kts | 327° |
| 2026-05-05 09:49 | 4.38678 | -65.52979 | 34224 ft | 489 kts | 327° |
| 2026-05-05 09:50 | 4.44386 | -65.56757 | 34217 ft | 488 kts | 327° |
| 2026-05-05 09:50 | 4.50092 | -65.60535 | 34223 ft | 489 kts | 327° |
| 2026-05-05 09:51 | 4.55821 | -65.64329 | 34223 ft | 488 kts | 327° |
| 2026-05-05 09:51 | 4.61468 | -65.68069 | 34214 ft | 488 kts | 327° |
| 2026-05-05 09:52 | 4.67156 | -65.71837 | 34185 ft | 489 kts | 327° |
| 2026-05-05 09:52 | 4.72858 | -65.75616 | 34154 ft | 489 kts | 327° |
| 2026-05-05 09:53 | 4.78531 | -65.79376 | 34134 ft | 490 kts | 327° |
| 2026-05-05 09:53 | 4.84286 | -65.83191 | 34126 ft | 490 kts | 327° |
| 2026-05-05 09:54 | 4.90036 | -65.87003 | 34111 ft | 490 kts | 327° |
| 2026-05-05 09:54 | 4.95762 | -65.90801 | 34108 ft | 490 kts | 327° |
| 2026-05-05 09:55 | 5.01491 | -65.94601 | 34096 ft | 489 kts | 327° |
| 2026-05-05 09:55 | 5.07200 | -65.98388 | 34095 ft | 490 kts | 327° |
| 2026-05-05 09:56 | 5.12926 | -66.02188 | 34098 ft | 490 kts | 327° |
| 2026-05-05 09:56 | 5.18627 | -66.05971 | 34093 ft | 491 kts | 327° |
| 2026-05-05 09:57 | 5.24336 | -66.09762 | 34101 ft | 490 kts | 327° |
| 2026-05-05 09:57 | 5.30055 | -66.13560 | 34112 ft | 490 kts | 327° |
| 2026-05-05 09:58 | 5.35749 | -66.17342 | 34133 ft | 489 kts | 327° |
| 2026-05-05 09:58 | 5.41472 | -66.21143 | 34145 ft | 489 kts | 327° |
| 2026-05-05 09:59 | 5.47206 | -66.24953 | 34162 ft | 489 kts | 327° |
| 2026-05-05 09:59 | 5.52930 | -66.28758 | 34184 ft | 489 kts | 327° |
| 2026-05-05 10:00 | 5.58630 | -66.32548 | 34203 ft | 489 kts | 327° |
| 2026-05-05 10:00 | 5.64343 | -66.36346 | 34213 ft | 489 kts | 327° |
| 2026-05-05 10:01 | 5.70051 | -66.40143 | 34218 ft | 488 kts | 327° |
| 2026-05-05 10:01 | 5.75756 | -66.43938 | 34231 ft | 488 kts | 327° |
| 2026-05-05 10:02 | 5.81444 | -66.47723 | 34220 ft | 488 kts | 327° |
| 2026-05-05 10:02 | 5.87149 | -66.51521 | 34216 ft | 488 kts | 327° |
| 2026-05-05 10:03 | 5.92854 | -66.55319 | 34196 ft | 489 kts | 327° |
| 2026-05-05 10:03 | 5.98544 | -66.59108 | 34190 ft | 488 kts | 327° |
| 2026-05-05 10:04 | 6.04256 | -66.62913 | 34169 ft | 488 kts | 327° |
| 2026-05-05 10:04 | 6.09941 | -66.66702 | 34150 ft | 488 kts | 327° |
| 2026-05-05 10:05 | 6.15605 | -66.70476 | 34129 ft | 489 kts | 327° |
| 2026-05-05 10:05 | 6.21282 | -66.74260 | 34114 ft | 489 kts | 327° |
| 2026-05-05 10:06 | 6.26957 | -66.78045 | 34097 ft | 489 kts | 327° |
| 2026-05-05 10:06 | 6.32704 | -66.81878 | 34082 ft | 489 kts | 327° |
| 2026-05-05 10:07 | 6.38388 | -66.85670 | 34065 ft | 489 kts | 326° |
| 2026-05-05 10:07 | 6.44116 | -66.89492 | 34050 ft | 489 kts | 326° |
| 2026-05-05 10:08 | 6.49849 | -66.93319 | 34034 ft | 489 kts | 326° |
| 2026-05-05 10:08 | 6.55574 | -66.97141 | 34014 ft | 486 kts | 326° |
| 2026-05-05 10:09 | 6.61237 | -67.00916 | 33994 ft | 486 kts | 326° |
| 2026-05-05 10:09 | 6.66946 | -67.04721 | 33978 ft | 485 kts | 326° |
| 2026-05-05 10:10 | 6.72625 | -67.08507 | 33975 ft | 485 kts | 326° |
| 2026-05-05 10:10 | 6.78340 | -67.12318 | 33967 ft | 485 kts | 326° |
| 2026-05-05 10:11 | 6.84020 | -67.16106 | 33968 ft | 485 kts | 326° |
| 2026-05-05 10:11 | 6.89677 | -67.19881 | 33968 ft | 485 kts | 326° |
| 2026-05-05 10:12 | 6.95371 | -67.23680 | 33966 ft | 485 kts | 326° |
| 2026-05-05 10:12 | 7.01065 | -67.27483 | 33963 ft | 485 kts | 326° |
| 2026-05-05 10:13 | 7.06747 | -67.31280 | 33960 ft | 485 kts | 326° |
| 2026-05-05 10:13 | 7.12402 | -67.35059 | 33959 ft | 485 kts | 326° |
| 2026-05-05 10:14 | 7.18047 | -67.38834 | 33957 ft | 485 kts | 326° |
| 2026-05-05 10:14 | 7.23647 | -67.42579 | 33957 ft | 486 kts | 326° |
| 2026-05-05 10:15 | 7.29332 | -67.46382 | 33957 ft | 486 kts | 326° |
| 2026-05-05 10:15 | 7.35016 | -67.50188 | 33955 ft | 485 kts | 326° |
| 2026-05-05 10:16 | 7.40647 | -67.53965 | 33951 ft | 484 kts | 326° |
| 2026-05-05 10:16 | 7.46310 | -67.57764 | 33949 ft | 485 kts | 326° |
| 2026-05-05 10:17 | 7.51954 | -67.61551 | 33950 ft | 484 kts | 326° |
| 2026-05-05 10:17 | 7.57614 | -67.65350 | 33952 ft | 485 kts | 326° |
| 2026-05-05 10:18 | 7.63256 | -67.69138 | 33959 ft | 484 kts | 326° |
| 2026-05-05 10:18 | 7.68828 | -67.72881 | 33958 ft | 484 kts | 326° |
| 2026-05-05 10:19 | 7.74468 | -67.76670 | 33959 ft | 483 kts | 326° |
| 2026-05-05 10:19 | 7.80126 | -67.80473 | 33959 ft | 484 kts | 326° |
| 2026-05-05 10:20 | 7.85803 | -67.84290 | 33954 ft | 484 kts | 326° |
| 2026-05-05 10:20 | 7.91437 | -67.88078 | 33956 ft | 485 kts | 326° |
| 2026-05-05 10:21 | 7.97109 | -67.91894 | 33956 ft | 483 kts | 326° |
| 2026-05-05 10:21 | 8.02770 | -67.95703 | 33952 ft | 484 kts | 326° |
| 2026-05-05 10:22 | 8.08437 | -67.99519 | 33953 ft | 485 kts | 326° |
| 2026-05-05 10:22 | 8.14018 | -68.03278 | 33958 ft | 485 kts | 326° |
| 2026-05-05 10:23 | 8.19660 | -68.07080 | 33958 ft | 484 kts | 326° |
| 2026-05-05 10:23 | 8.25238 | -68.10839 | 33955 ft | 484 kts | 326° |
| 2026-05-05 10:24 | 8.30894 | -68.14653 | 33955 ft | 484 kts | 326° |
| 2026-05-05 10:24 | 8.36501 | -68.18435 | 33952 ft | 485 kts | 326° |
| 2026-05-05 10:25 | 8.42154 | -68.22249 | 33956 ft | 485 kts | 326° |
| 2026-05-05 10:25 | 8.47807 | -68.26063 | 33957 ft | 484 kts | 326° |
| 2026-05-05 10:26 | 8.53439 | -68.29867 | 33959 ft | 483 kts | 326° |
| 2026-05-05 10:26 | 8.59117 | -68.33702 | 33958 ft | 483 kts | 326° |
| 2026-05-05 10:27 | 8.64710 | -68.37481 | 33958 ft | 483 kts | 326° |
| 2026-05-05 10:27 | 8.70344 | -68.41289 | 33957 ft | 483 kts | 326° |
| 2026-05-05 10:28 | 8.75970 | -68.45094 | 33958 ft | 484 kts | 326° |
| 2026-05-05 10:28 | 8.81638 | -68.48927 | 33958 ft | 483 kts | 326° |
| 2026-05-05 10:29 | 8.87237 | -68.52716 | 33959 ft | 482 kts | 326° |
| 2026-05-05 10:29 | 8.92900 | -68.56549 | 33958 ft | 483 kts | 326° |
| 2026-05-05 10:30 | 8.98533 | -68.60365 | 33962 ft | 484 kts | 326° |
| 2026-05-05 10:30 | 9.04159 | -68.64175 | 33962 ft | 482 kts | 326° |
| 2026-05-05 10:31 | 9.09741 | -68.67958 | 33960 ft | 481 kts | 326° |
| 2026-05-05 10:31 | 9.15300 | -68.71727 | 33965 ft | 482 kts | 326° |
| 2026-05-05 10:32 | 9.20899 | -68.75524 | 33968 ft | 483 kts | 326° |
| 2026-05-05 10:32 | 9.26499 | -68.79324 | 33969 ft | 483 kts | 327° |
| 2026-05-05 10:33 | 9.32118 | -68.83137 | 33970 ft | 484 kts | 327° |
| 2026-05-05 10:33 | 9.37742 | -68.86956 | 33975 ft | 483 kts | 327° |
| 2026-05-05 10:34 | 9.43329 | -68.90750 | 33976 ft | 482 kts | 327° |
| 2026-05-05 10:34 | 9.48947 | -68.94569 | 33978 ft | 482 kts | 327° |
| 2026-05-05 10:35 | 9.54579 | -68.98396 | 33982 ft | 482 kts | 327° |
| 2026-05-05 10:35 | 9.60182 | -69.02207 | 33987 ft | 483 kts | 327° |
| 2026-05-05 10:36 | 9.65828 | -69.06048 | 33993 ft | 484 kts | 327° |
| 2026-05-05 10:36 | 9.71448 | -69.09872 | 34006 ft | 483 kts | 327° |
| 2026-05-05 10:37 | 9.77071 | -69.13699 | 34016 ft | 482 kts | 327° |
| 2026-05-05 10:37 | 9.82694 | -69.17529 | 34023 ft | 482 kts | 327° |
| 2026-05-05 10:38 | 9.88297 | -69.21345 | 34034 ft | 482 kts | 327° |
| 2026-05-05 10:38 | 9.93923 | -69.25179 | 34040 ft | 482 kts | 327° |
| 2026-05-05 10:39 | 9.99553 | -69.29018 | 34047 ft | 483 kts | 327° |
| 2026-05-05 10:39 | 10.05147 | -69.32834 | 34052 ft | 482 kts | 327° |
| 2026-05-05 10:40 | 10.10783 | -69.36679 | 34058 ft | 483 kts | 327° |
| 2026-05-05 10:40 | 10.16354 | -69.40481 | 34059 ft | 482 kts | 327° |
| 2026-05-05 10:41 | 10.21917 | -69.44280 | 34057 ft | 482 kts | 327° |
| 2026-05-05 10:41 | 10.27501 | -69.48094 | 34057 ft | 481 kts | 327° |
| 2026-05-05 10:42 | 10.35854 | -69.53805 | 34047 ft | 481 kts | 327° |
| 2026-05-05 10:43 | 10.41467 | -69.57645 | 34037 ft | 481 kts | 327° |
| 2026-05-05 10:43 | 10.47052 | -69.61468 | 34030 ft | 481 kts | 326° |
| 2026-05-05 10:44 | 10.52601 | -69.65268 | 34028 ft | 478 kts | 326° |
| 2026-05-05 10:44 | 10.58166 | -69.69080 | 34034 ft | 479 kts | 326° |
| 2026-05-05 10:45 | 10.63702 | -69.72869 | 34044 ft | 479 kts | 326° |
| 2026-05-05 10:45 | 10.69264 | -69.76667 | 34058 ft | 479 kts | 326° |
| 2026-05-05 10:46 | 10.74811 | -69.80473 | 34063 ft | 480 kts | 326° |
| 2026-05-05 10:46 | 10.80415 | -69.84322 | 34050 ft | 478 kts | 326° |
| 2026-05-05 10:47 | 10.85988 | -69.88152 | 34029 ft | 479 kts | 326° |
| 2026-05-05 10:47 | 10.91528 | -69.91959 | 34011 ft | 478 kts | 326° |
| 2026-05-05 10:48 | 10.97103 | -69.95793 | 33992 ft | 479 kts | 326° |
| 2026-05-05 10:48 | 11.02677 | -69.99628 | 33976 ft | 480 kts | 326° |
| 2026-05-05 10:49 | 11.08231 | -70.03450 | 33956 ft | 480 kts | 326° |
| 2026-05-05 10:49 | 11.13755 | -70.07249 | 33947 ft | 478 kts | 326° |
| 2026-05-05 10:50 | 11.19297 | -70.11063 | 33947 ft | 478 kts | 326° |
| 2026-05-05 10:50 | 11.24808 | -70.14857 | 33942 ft | 478 kts | 326° |
| 2026-05-05 10:51 | 11.30350 | -70.18674 | 33934 ft | 479 kts | 326° |
| 2026-05-05 10:51 | 11.35958 | -70.22538 | 33936 ft | 479 kts | 326° |
| 2026-05-05 10:52 | 11.41499 | -70.26358 | 33924 ft | 479 kts | 326° |
| 2026-05-05 10:52 | 11.47095 | -70.30218 | 33924 ft | 478 kts | 326° |
| 2026-05-05 10:53 | 11.52657 | -70.34057 | 33922 ft | 479 kts | 326° |
| 2026-05-05 10:53 | 11.58223 | -70.37900 | 33923 ft | 479 kts | 326° |
| 2026-05-05 10:54 | 11.63763 | -70.41737 | 33922 ft | 479 kts | 325° |
| 2026-05-05 10:54 | 11.69363 | -70.45632 | 33923 ft | 479 kts | 325° |
| 2026-05-05 10:55 | 11.74904 | -70.49470 | 33922 ft | 480 kts | 325° |
| 2026-05-05 10:55 | 11.80486 | -70.53339 | 33927 ft | 479 kts | 325° |
| 2026-05-05 10:56 | 11.86037 | -70.57187 | 33924 ft | 481 kts | 325° |
| 2026-05-05 10:56 | 11.91614 | -70.61055 | 33925 ft | 479 kts | 325° |
| 2026-05-05 10:57 | 11.97162 | -70.64906 | 33928 ft | 480 kts | 325° |
| 2026-05-05 10:57 | 12.02718 | -70.68763 | 33926 ft | 479 kts | 325° |
| 2026-05-05 10:58 | 12.08260 | -70.72613 | 33921 ft | 481 kts | 325° |
| 2026-05-05 10:58 | 12.13773 | -70.76445 | 33918 ft | 480 kts | 325° |
| 2026-05-05 10:59 | 12.19318 | -70.80301 | 33918 ft | 480 kts | 325° |
| 2026-05-05 10:59 | 12.24815 | -70.84125 | 33924 ft | 479 kts | 325° |
| 2026-05-05 11:00 | 12.30400 | -70.88010 | 33919 ft | 479 kts | 325° |
| 2026-05-05 11:00 | 12.35941 | -70.91868 | 33918 ft | 479 kts | 325° |
| 2026-05-05 11:01 | 12.41518 | -70.95752 | 33924 ft | 479 kts | 325° |
| 2026-05-05 11:01 | 12.47062 | -70.99616 | 33923 ft | 478 kts | 325° |
| 2026-05-05 11:02 | 12.52608 | -71.03430 | 33921 ft | 477 kts | 326° |
| 2026-05-05 11:02 | 12.58225 | -71.07161 | 33920 ft | 478 kts | 326° |
| 2026-05-05 11:03 | 12.63876 | -71.10921 | 33924 ft | 478 kts | 326° |
| 2026-05-05 11:03 | 12.69499 | -71.14669 | 33928 ft | 478 kts | 326° |
| 2026-05-05 11:04 | 12.75124 | -71.18422 | 33937 ft | 477 kts | 326° |
| 2026-05-05 11:04 | 12.80734 | -71.22169 | 33932 ft | 476 kts | 326° |
| 2026-05-05 11:05 | 12.86341 | -71.25916 | 33940 ft | 474 kts | 326° |
| 2026-05-05 11:05 | 12.91925 | -71.29651 | 33936 ft | 475 kts | 326° |
| 2026-05-05 11:06 | 12.97515 | -71.33392 | 33933 ft | 476 kts | 326° |
| 2026-05-05 11:06 | 13.03121 | -71.37145 | 33936 ft | 476 kts | 326° |
| 2026-05-05 11:07 | 13.08725 | -71.40900 | 33936 ft | 476 kts | 326° |
| 2026-05-05 11:07 | 13.14269 | -71.44615 | 33941 ft | 475 kts | 326° |
| 2026-05-05 11:08 | 13.19809 | -71.48328 | 33944 ft | 474 kts | 326° |
| 2026-05-05 11:08 | 13.25326 | -71.52028 | 33941 ft | 474 kts | 326° |
| 2026-05-05 11:09 | 13.30898 | -71.55767 | 33942 ft | 474 kts | 326° |
| 2026-05-05 11:09 | 13.36492 | -71.59522 | 33944 ft | 473 kts | 326° |
| 2026-05-05 11:10 | 13.42017 | -71.63234 | 33941 ft | 473 kts | 326° |
| 2026-05-05 11:10 | 13.47579 | -71.66972 | 33946 ft | 473 kts | 326° |
| 2026-05-05 11:11 | 13.53084 | -71.70675 | 33946 ft | 472 kts | 326° |
| 2026-05-05 11:11 | 13.58564 | -71.74362 | 33945 ft | 472 kts | 326° |
| 2026-05-05 11:12 | 13.64084 | -71.78078 | 33948 ft | 473 kts | 326° |
| 2026-05-05 11:12 | 13.69648 | -71.81827 | 33947 ft | 472 kts | 326° |
| 2026-05-05 11:13 | 13.75168 | -71.85548 | 33945 ft | 473 kts | 326° |
| 2026-05-05 11:13 | 13.80697 | -71.89276 | 33947 ft | 471 kts | 326° |
| 2026-05-05 11:14 | 13.86251 | -71.93024 | 33945 ft | 471 kts | 326° |
| 2026-05-05 11:14 | 13.91741 | -71.96719 | 33941 ft | 472 kts | 326° |
| 2026-05-05 11:15 | 13.97266 | -72.00429 | 33931 ft | 470 kts | 326° |
| 2026-05-05 11:15 | 14.02832 | -72.04168 | 33929 ft | 470 kts | 326° |
| 2026-05-05 11:16 | 14.08360 | -72.07884 | 33931 ft | 470 kts | 326° |
| 2026-05-05 11:16 | 14.13847 | -72.11576 | 33934 ft | 470 kts | 326° |
| 2026-05-05 11:17 | 14.19313 | -72.15256 | 33937 ft | 470 kts | 326° |
| 2026-05-05 11:17 | 14.24813 | -72.18961 | 33936 ft | 470 kts | 326° |
| 2026-05-05 11:18 | 14.30303 | -72.22661 | 33942 ft | 471 kts | 326° |
| 2026-05-05 11:18 | 14.35835 | -72.26406 | 33944 ft | 469 kts | 325° |
| 2026-05-05 11:19 | 14.41305 | -72.30151 | 33940 ft | 469 kts | 325° |
| 2026-05-05 11:19 | 14.46801 | -72.33916 | 33951 ft | 468 kts | 325° |
| 2026-05-05 11:20 | 14.52250 | -72.37649 | 33951 ft | 469 kts | 325° |
| 2026-05-05 11:20 | 14.57735 | -72.41409 | 33950 ft | 470 kts | 325° |
| 2026-05-05 11:21 | 14.63193 | -72.45150 | 33950 ft | 469 kts | 325° |
| 2026-05-05 11:21 | 14.68679 | -72.48893 | 33953 ft | 468 kts | 325° |
| 2026-05-05 11:22 | 14.74159 | -72.52634 | 33955 ft | 468 kts | 325° |
| 2026-05-05 11:22 | 14.79634 | -72.56374 | 33954 ft | 469 kts | 325° |
| 2026-05-05 11:23 | 14.85137 | -72.60136 | 33952 ft | 470 kts | 325° |
| 2026-05-05 11:23 | 14.90591 | -72.63866 | 33952 ft | 468 kts | 324° |
| 2026-05-05 11:24 | 14.96019 | -72.67582 | 33956 ft | 467 kts | 324° |
| 2026-05-05 11:24 | 15.01472 | -72.71317 | 33960 ft | 468 kts | 324° |
| 2026-05-05 11:25 | 15.06873 | -72.75019 | 33957 ft | 468 kts | 324° |
| 2026-05-05 11:25 | 15.12322 | -72.78756 | 33958 ft | 468 kts | 324° |
| 2026-05-05 11:26 | 15.17746 | -72.82478 | 33959 ft | 468 kts | 324° |
| 2026-05-05 11:26 | 15.23202 | -72.86224 | 33959 ft | 468 kts | 324° |
| 2026-05-05 11:27 | 15.28637 | -72.89959 | 33957 ft | 468 kts | 324° |
| 2026-05-05 11:27 | 15.34078 | -72.93699 | 33958 ft | 468 kts | 324° |
| 2026-05-05 11:28 | 15.39545 | -72.97460 | 33960 ft | 468 kts | 324° |
| 2026-05-05 11:28 | 15.45000 | -73.01215 | 33960 ft | 467 kts | 324° |
| 2026-05-05 11:29 | 15.50444 | -73.04964 | 33959 ft | 466 kts | 324° |
| 2026-05-05 11:29 | 15.55904 | -73.08727 | 33960 ft | 466 kts | 324° |
| 2026-05-05 11:30 | 15.61339 | -73.12464 | 33962 ft | 466 kts | 324° |
| 2026-05-05 11:30 | 15.66823 | -73.16237 | 33964 ft | 468 kts | 324° |
| 2026-05-05 11:31 | 15.72268 | -73.19985 | 33964 ft | 467 kts | 324° |
| 2026-05-05 11:31 | 15.77734 | -73.23751 | 33964 ft | 468 kts | 324° |
| 2026-05-05 11:32 | 15.83177 | -73.27504 | 33966 ft | 467 kts | 324° |
| 2026-05-05 11:32 | 15.88626 | -73.31263 | 33967 ft | 466 kts | 324° |
| 2026-05-05 11:33 | 15.94047 | -73.35005 | 33965 ft | 466 kts | 324° |
| 2026-05-05 11:33 | 15.99499 | -73.38771 | 33970 ft | 466 kts | 324° |
| 2026-05-05 11:34 | 16.04945 | -73.42535 | 33969 ft | 465 kts | 324° |
| 2026-05-05 11:34 | 16.10355 | -73.46278 | 33970 ft | 466 kts | 324° |
| 2026-05-05 11:35 | 16.15739 | -73.50005 | 33973 ft | 465 kts | 324° |
| 2026-05-05 11:35 | 16.21137 | -73.53744 | 33973 ft | 465 kts | 324° |
| 2026-05-05 11:36 | 16.26554 | -73.57498 | 33975 ft | 465 kts | 324° |
| 2026-05-05 11:36 | 16.31965 | -73.61251 | 33978 ft | 464 kts | 324° |
| 2026-05-05 11:37 | 16.37379 | -73.65006 | 33978 ft | 465 kts | 323° |
| 2026-05-05 11:37 | 16.42769 | -73.68718 | 33987 ft | 464 kts | 324° |
| 2026-05-05 11:38 | 16.48186 | -73.72450 | 33987 ft | 464 kts | 323° |
| 2026-05-05 11:38 | 16.53574 | -73.76165 | 33989 ft | 463 kts | 323° |
| 2026-05-05 11:39 | 16.58968 | -73.79888 | 33988 ft | 464 kts | 323° |
| 2026-05-05 11:39 | 16.64383 | -73.83627 | 33990 ft | 464 kts | 323° |
| 2026-05-05 11:40 | 16.69779 | -73.87357 | 33987 ft | 465 kts | 323° |
| 2026-05-05 11:40 | 16.75187 | -73.91097 | 33987 ft | 464 kts | 323° |
| 2026-05-05 11:41 | 16.80590 | -73.94836 | 33991 ft | 464 kts | 323° |
| 2026-05-05 11:41 | 16.86006 | -73.98587 | 33990 ft | 462 kts | 323° |
| 2026-05-05 11:42 | 16.91383 | -74.02313 | 33989 ft | 462 kts | 323° |
| 2026-05-05 11:42 | 16.96767 | -74.06048 | 33992 ft | 462 kts | 323° |
| 2026-05-05 11:43 | 17.02152 | -74.09785 | 33991 ft | 462 kts | 323° |
| 2026-05-05 11:43 | 17.07523 | -74.13516 | 33993 ft | 462 kts | 323° |
| 2026-05-05 11:44 | 17.12890 | -74.17246 | 33994 ft | 461 kts | 323° |
| 2026-05-05 11:44 | 17.18252 | -74.20976 | 33994 ft | 461 kts | 323° |
| 2026-05-05 11:45 | 17.23591 | -74.24691 | 33995 ft | 460 kts | 323° |
| 2026-05-05 11:45 | 17.28961 | -74.28432 | 33995 ft | 461 kts | 323° |
| 2026-05-05 11:46 | 17.34321 | -74.32168 | 33996 ft | 460 kts | 323° |
| 2026-05-05 11:46 | 17.39683 | -74.35908 | 33995 ft | 461 kts | 323° |
| 2026-05-05 11:47 | 17.45044 | -74.39648 | 33992 ft | 459 kts | 323° |
| 2026-05-05 11:47 | 17.50361 | -74.43363 | 33995 ft | 458 kts | 323° |
| 2026-05-05 11:48 | 17.58360 | -74.48955 | 33994 ft | 459 kts | 323° |
| 2026-05-05 11:48 | 17.63657 | -74.52661 | 33994 ft | 458 kts | 323° |
| 2026-05-05 11:49 | 17.68995 | -74.56400 | 33991 ft | 458 kts | 323° |
| 2026-05-05 11:49 | 17.74305 | -74.60120 | 33995 ft | 458 kts | 323° |
| 2026-05-05 11:50 | 17.79607 | -74.63839 | 33986 ft | 457 kts | 323° |
| 2026-05-05 11:50 | 17.84900 | -74.67553 | 34000 ft | 457 kts | 322° |
| 2026-05-05 11:51 | 17.90188 | -74.71266 | 34002 ft | 455 kts | 323° |
| 2026-05-05 11:51 | 17.95448 | -74.74963 | 33997 ft | 455 kts | 322° |
| 2026-05-05 11:52 | 18.00707 | -74.78661 | 33995 ft | 454 kts | 322° |
| 2026-05-05 11:52 | 18.05993 | -74.82383 | 33993 ft | 457 kts | 322° |
| 2026-05-05 11:53 | 18.11285 | -74.86109 | 33994 ft | 453 kts | 322° |
| 2026-05-05 11:53 | 18.16528 | -74.89806 | 33997 ft | 454 kts | 322° |
| 2026-05-05 11:54 | 18.21761 | -74.93496 | 33997 ft | 453 kts | 322° |
| 2026-05-05 11:54 | 18.27026 | -74.97213 | 33997 ft | 454 kts | 322° |
| 2026-05-05 11:55 | 18.32229 | -75.00888 | 33995 ft | 452 kts | 322° |
| 2026-05-05 11:55 | 18.37491 | -75.04609 | 33995 ft | 453 kts | 323° |
| 2026-05-05 11:56 | 18.42721 | -75.08308 | 33993 ft | 451 kts | 323° |
| 2026-05-05 11:56 | 18.47965 | -75.12021 | 33992 ft | 451 kts | 322° |
| 2026-05-05 11:57 | 18.53185 | -75.15720 | 34002 ft | 452 kts | 323° |
| 2026-05-05 11:57 | 18.58336 | -75.19442 | 34012 ft | 449 kts | 320° |
| 2026-05-05 11:58 | 18.63353 | -75.23368 | 34008 ft | 448 kts | 320° |
| 2026-05-05 11:58 | 18.68378 | -75.27296 | 34011 ft | 449 kts | 320° |
| 2026-05-05 11:59 | 18.73417 | -75.31227 | 34010 ft | 450 kts | 320° |
| 2026-05-05 11:59 | 18.78459 | -75.35158 | 34010 ft | 448 kts | 320° |
| 2026-05-05 12:00 | 18.83485 | -75.39075 | 34006 ft | 449 kts | 321° |
| 2026-05-05 12:00 | 18.88528 | -75.43008 | 34006 ft | 448 kts | 321° |
| 2026-05-05 12:01 | 18.93543 | -75.46922 | 34007 ft | 447 kts | 321° |
| 2026-05-05 12:01 | 18.98548 | -75.50830 | 34006 ft | 447 kts | 320° |
| 2026-05-05 12:02 | 19.03590 | -75.54771 | 34005 ft | 447 kts | 321° |
| 2026-05-05 12:02 | 19.08614 | -75.58699 | 34005 ft | 447 kts | 321° |
| 2026-05-05 12:03 | 19.13634 | -75.62628 | 34009 ft | 449 kts | 321° |
| 2026-05-05 12:03 | 19.18642 | -75.66550 | 34021 ft | 448 kts | 320° |
| 2026-05-05 12:04 | 19.23635 | -75.70464 | 34027 ft | 447 kts | 320° |
| 2026-05-05 12:04 | 19.28625 | -75.74378 | 34028 ft | 445 kts | 320° |
| 2026-05-05 12:05 | 19.33620 | -75.78299 | 34028 ft | 446 kts | 321° |
| 2026-05-05 12:05 | 19.38585 | -75.82200 | 34028 ft | 445 kts | 321° |
| 2026-05-05 12:06 | 19.43573 | -75.86122 | 34037 ft | 445 kts | 320° |
| 2026-05-05 12:06 | 19.48574 | -75.90057 | 34028 ft | 445 kts | 320° |
| 2026-05-05 12:07 | 19.53534 | -75.93963 | 34026 ft | 445 kts | 321° |
| 2026-05-05 12:07 | 19.58516 | -75.97889 | 34023 ft | 446 kts | 321° |
| 2026-05-05 12:08 | 19.63492 | -76.01814 | 34026 ft | 442 kts | 321° |
| 2026-05-05 12:08 | 19.68427 | -76.05711 | 34024 ft | 443 kts | 321° |
| 2026-05-05 12:09 | 19.73398 | -76.09640 | 34023 ft | 444 kts | 321° |
| 2026-05-05 12:09 | 19.78343 | -76.13551 | 34024 ft | 442 kts | 321° |
| 2026-05-05 12:10 | 19.83317 | -76.17487 | 34027 ft | 443 kts | 321° |
| 2026-05-05 12:10 | 19.88262 | -76.21404 | 34029 ft | 439 kts | 321° |
| 2026-05-05 12:11 | 19.93185 | -76.25307 | 34026 ft | 440 kts | 321° |
| 2026-05-05 12:11 | 19.98092 | -76.29201 | 34038 ft | 439 kts | 321° |
| 2026-05-05 12:12 | 20.03022 | -76.33115 | 34054 ft | 440 kts | 321° |
| 2026-05-05 12:12 | 20.07948 | -76.37031 | 34060 ft | 441 kts | 321° |
| 2026-05-05 12:13 | 20.12856 | -76.40934 | 34075 ft | 440 kts | 322° |
| 2026-05-05 12:13 | 20.17750 | -76.44830 | 34065 ft | 438 kts | 322° |
| 2026-05-05 12:14 | 20.22630 | -76.48717 | 34065 ft | 439 kts | 321° |
| 2026-05-05 12:14 | 20.27546 | -76.52636 | 34057 ft | 439 kts | 321° |
| 2026-05-05 12:15 | 20.32436 | -76.56538 | 34051 ft | 440 kts | 321° |
| 2026-05-05 12:15 | 20.37336 | -76.60451 | 34039 ft | 438 kts | 321° |
| 2026-05-05 12:16 | 20.42253 | -76.64380 | 34044 ft | 439 kts | 322° |
| 2026-05-05 12:16 | 20.47105 | -76.68246 | 34045 ft | 437 kts | 321° |
| 2026-05-05 12:17 | 20.52003 | -76.72153 | 34045 ft | 438 kts | 321° |
| 2026-05-05 12:17 | 20.56876 | -76.76043 | 34044 ft | 438 kts | 321° |
| 2026-05-05 12:18 | 20.61786 | -76.79966 | 34036 ft | 438 kts | 321° |
| 2026-05-05 12:18 | 20.66664 | -76.83867 | 34037 ft | 436 kts | 321° |
| 2026-05-05 12:19 | 20.71523 | -76.87756 | 34037 ft | 438 kts | 321° |
| 2026-05-05 12:19 | 20.76407 | -76.91668 | 34043 ft | 438 kts | 321° |
| 2026-05-05 12:20 | 20.81296 | -76.95586 | 34037 ft | 437 kts | 321° |
| 2026-05-05 12:20 | 20.86155 | -76.99486 | 34039 ft | 437 kts | 321° |
| 2026-05-05 12:21 | 20.91014 | -77.03387 | 34038 ft | 435 kts | 321° |
| 2026-05-05 12:21 | 20.95853 | -77.07276 | 34038 ft | 433 kts | 321° |
| 2026-05-05 12:22 | 21.00694 | -77.11170 | 34037 ft | 435 kts | 321° |
| 2026-05-05 12:22 | 21.05523 | -77.15057 | 34036 ft | 435 kts | 321° |
| 2026-05-05 12:23 | 21.10356 | -77.18950 | 34037 ft | 435 kts | 321° |
| 2026-05-05 12:23 | 21.15201 | -77.22857 | 34042 ft | 434 kts | 321° |
| 2026-05-05 12:24 | 21.20012 | -77.26739 | 34039 ft | 434 kts | 321° |
| 2026-05-05 12:24 | 21.24818 | -77.30621 | 34033 ft | 433 kts | 321° |
| 2026-05-05 12:25 | 21.29653 | -77.34529 | 34032 ft | 435 kts | 321° |
| 2026-05-05 12:25 | 21.34490 | -77.38443 | 34031 ft | 435 kts | 321° |
| 2026-05-05 12:26 | 21.39315 | -77.42349 | 34032 ft | 434 kts | 321° |
| 2026-05-05 12:26 | 21.44127 | -77.46257 | 34031 ft | 433 kts | 321° |
| 2026-05-05 12:27 | 21.48917 | -77.50151 | 34033 ft | 433 kts | 321° |
| 2026-05-05 12:27 | 21.53725 | -77.54063 | 34031 ft | 433 kts | 321° |
| 2026-05-05 12:28 | 21.58507 | -77.57957 | 34031 ft | 432 kts | 321° |
| 2026-05-05 12:28 | 21.63309 | -77.61870 | 34029 ft | 432 kts | 321° |
| 2026-05-05 12:29 | 21.68109 | -77.65786 | 34036 ft | 432 kts | 321° |
| 2026-05-05 12:29 | 21.72887 | -77.69687 | 34039 ft | 432 kts | 321° |
| 2026-05-05 12:30 | 21.77676 | -77.73599 | 34037 ft | 432 kts | 321° |
| 2026-05-05 12:30 | 21.82438 | -77.77494 | 34035 ft | 431 kts | 321° |
| 2026-05-05 12:31 | 21.87238 | -77.81422 | 34035 ft | 432 kts | 321° |
| 2026-05-05 12:31 | 21.91992 | -77.85323 | 34033 ft | 432 kts | 321° |
| 2026-05-05 12:32 | 21.96779 | -77.89279 | 34032 ft | 432 kts | 321° |
| 2026-05-05 12:32 | 22.01546 | -77.93221 | 34029 ft | 431 kts | 321° |
| 2026-05-05 12:33 | 22.06290 | -77.97146 | 34024 ft | 431 kts | 321° |
| 2026-05-05 12:33 | 22.11056 | -78.01093 | 34034 ft | 429 kts | 321° |
| 2026-05-05 12:34 | 22.15809 | -78.05032 | 34037 ft | 430 kts | 321° |
| 2026-05-05 12:34 | 22.20541 | -78.08958 | 34032 ft | 431 kts | 321° |
| 2026-05-05 12:35 | 22.25287 | -78.12897 | 34032 ft | 429 kts | 321° |
| 2026-05-05 12:35 | 22.30011 | -78.16822 | 34026 ft | 428 kts | 320° |
| 2026-05-05 12:36 | 22.34730 | -78.20748 | 34029 ft | 429 kts | 321° |
| 2026-05-05 12:36 | 22.39453 | -78.24679 | 34032 ft | 428 kts | 321° |
| 2026-05-05 12:37 | 22.44177 | -78.28614 | 34029 ft | 428 kts | 321° |
| 2026-05-05 12:37 | 22.48865 | -78.32523 | 34026 ft | 428 kts | 321° |
| 2026-05-05 12:38 | 22.53574 | -78.36448 | 34026 ft | 426 kts | 321° |
| 2026-05-05 12:38 | 22.58290 | -78.40361 | 34024 ft | 427 kts | 321° |
| 2026-05-05 12:39 | 22.62989 | -78.44264 | 34022 ft | 426 kts | 321° |
| 2026-05-05 12:39 | 22.67695 | -78.48177 | 34023 ft | 426 kts | 321° |
| 2026-05-05 12:40 | 22.72396 | -78.52090 | 34019 ft | 425 kts | 321° |
| 2026-05-05 12:40 | 22.77357 | -78.55525 | 34011 ft | 427 kts | 332° |
| 2026-05-05 12:41 | 22.83071 | -78.57448 | 34018 ft | 435 kts | 345° |
| 2026-05-05 12:41 | 22.89042 | -78.58566 | 34024 ft | 434 kts | 346° |
| 2026-05-05 12:42 | 22.95014 | -78.59679 | 34021 ft | 433 kts | 345° |
| 2026-05-05 12:42 | 23.00949 | -78.60792 | 34021 ft | 434 kts | 346° |
| 2026-05-05 12:43 | 23.06925 | -78.61916 | 34020 ft | 433 kts | 346° |
| 2026-05-05 12:43 | 23.12853 | -78.63032 | 34026 ft | 434 kts | 346° |
| 2026-05-05 12:44 | 23.18805 | -78.64156 | 34029 ft | 435 kts | 346° |
| 2026-05-05 12:44 | 23.24770 | -78.65282 | 34040 ft | 433 kts | 345° |
| 2026-05-05 12:45 | 23.30695 | -78.66402 | 34042 ft | 433 kts | 345° |
| 2026-05-05 12:45 | 23.36627 | -78.67524 | 34044 ft | 432 kts | 345° |
| 2026-05-05 12:46 | 23.42560 | -78.68649 | 34042 ft | 432 kts | 345° |
| 2026-05-05 12:46 | 23.48480 | -78.69771 | 34036 ft | 431 kts | 345° |
| 2026-05-05 12:47 | 23.54409 | -78.70896 | 34039 ft | 432 kts | 346° |
| 2026-05-05 12:47 | 23.60363 | -78.72028 | 34038 ft | 433 kts | 345° |
| 2026-05-05 12:48 | 23.66291 | -78.73154 | 34039 ft | 432 kts | 345° |
| 2026-05-05 12:48 | 23.72169 | -78.74272 | 34035 ft | 429 kts | 345° |
| 2026-05-05 12:49 | 23.78100 | -78.75403 | 34033 ft | 431 kts | 345° |
| 2026-05-05 12:49 | 23.84003 | -78.76529 | 34033 ft | 432 kts | 346° |
| 2026-05-05 12:50 | 23.89906 | -78.77655 | 34031 ft | 432 kts | 346° |
| 2026-05-05 12:50 | 23.95820 | -78.78784 | 34020 ft | 431 kts | 345° |
| 2026-05-05 12:51 | 24.01466 | -78.80711 | 34011 ft | 422 kts | 331° |
| 2026-05-05 12:51 | 24.06535 | -78.83895 | 34013 ft | 419 kts | 326° |
| 2026-05-05 12:52 | 24.11551 | -78.87212 | 34022 ft | 420 kts | 327° |
| 2026-05-05 12:52 | 24.16570 | -78.90533 | 34020 ft | 419 kts | 326° |
| 2026-05-05 12:53 | 24.21552 | -78.93833 | 34017 ft | 418 kts | 327° |
| 2026-05-05 12:53 | 24.26520 | -78.97126 | 34021 ft | 417 kts | 327° |
| 2026-05-05 12:54 | 24.33967 | -79.02068 | 34020 ft | 416 kts | 326° |
| 2026-05-05 12:55 | 24.39051 | -79.05447 | 34019 ft | 437 kts | 327° |
| 2026-05-05 12:55 | 24.44349 | -79.08971 | 34018 ft | 447 kts | 327° |
| 2026-05-05 12:56 | 24.49677 | -79.12517 | 34011 ft | 447 kts | 327° |
| 2026-05-05 12:56 | 24.54968 | -79.16042 | 34009 ft | 445 kts | 327° |
| 2026-05-05 12:57 | 24.60241 | -79.19559 | 34008 ft | 445 kts | 327° |
| 2026-05-05 12:57 | 24.65533 | -79.23093 | 34009 ft | 445 kts | 327° |
| 2026-05-05 12:58 | 24.70819 | -79.26624 | 34007 ft | 444 kts | 326° |
| 2026-05-05 12:58 | 24.76106 | -79.30162 | 34010 ft | 445 kts | 327° |
| 2026-05-05 12:59 | 24.81361 | -79.33681 | 33865 ft | 438 kts | 326° |
| 2026-05-05 12:59 | 24.83958 | -79.35420 | 33346 ft | 433 kts | 326° |
| 2026-05-05 12:59 | 24.86547 | -79.37157 | 32500 ft | 434 kts | 326° |
| 2026-05-05 13:00 | 24.91697 | -79.40614 | 30811 ft | 434 kts | 326° |
| 2026-05-05 13:00 | 24.94275 | -79.42345 | 29986 ft | 428 kts | 326° |
| 2026-05-05 13:01 | 25.01726 | -79.47351 | 26868 ft | 412 kts | 326° |
| 2026-05-05 13:01 | 25.04155 | -79.48985 | 25818 ft | 407 kts | 325° |
| 2026-05-05 13:01 | 25.06529 | -79.50584 | 24833 ft | 401 kts | 326° |
| 2026-05-05 13:01 | 25.08897 | -79.52178 | 23849 ft | 396 kts | 325° |
| 2026-05-05 13:02 | 25.11229 | -79.53748 | 22846 ft | 391 kts | 325° |
| 2026-05-05 13:02 | 25.13510 | -79.55286 | 21959 ft | 385 kts | 325° |
| 2026-05-05 13:02 | 25.15773 | -79.56812 | 21040 ft | 380 kts | 325° |
| 2026-05-05 13:02 | 25.18010 | -79.58322 | 20125 ft | 376 kts | 325° |
| 2026-05-05 13:03 | 25.20227 | -79.59819 | 19147 ft | 374 kts | 325° |
| 2026-05-05 13:03 | 25.22437 | -79.61311 | 18214 ft | 370 kts | 325° |
| 2026-05-05 13:03 | 25.24648 | -79.62805 | 17302 ft | 365 kts | 325° |
| 2026-05-05 13:03 | 25.26772 | -79.64240 | 16409 ft | 361 kts | 325° |
| 2026-05-05 13:04 | 25.28915 | -79.65690 | 15448 ft | 360 kts | 325° |
| 2026-05-05 13:04 | 25.31023 | -79.67117 | 14496 ft | 359 kts | 324° |
| 2026-05-05 13:04 | 25.33158 | -79.68562 | 13844 ft | 356 kts | 325° |
| 2026-05-05 13:04 | 25.35237 | -79.69968 | 13714 ft | 342 kts | 324° |
| 2026-05-05 13:05 | 25.37220 | -79.71309 | 13672 ft | 327 kts | 324° |
| 2026-05-05 13:05 | 25.38970 | -79.72839 | 13322 ft | 318 kts | 310° |
| 2026-05-05 13:05 | 25.40333 | -79.74725 | 12772 ft | 318 kts | 304° |
| 2026-05-05 13:05 | 25.41637 | -79.76736 | 12298 ft | 318 kts | 303° |
| 2026-05-05 13:06 | 25.42906 | -79.78716 | 12018 ft | 312 kts | 303° |
| 2026-05-05 13:06 | 25.44166 | -79.80682 | 11989 ft | 317 kts | 303° |
| 2026-05-05 13:06 | 25.45441 | -79.82670 | 11985 ft | 317 kts | 303° |
| 2026-05-05 13:06 | 25.46718 | -79.84663 | 11983 ft | 316 kts | 303° |
| 2026-05-05 13:07 | 25.48006 | -79.86671 | 11981 ft | 316 kts | 303° |
| 2026-05-05 13:07 | 25.49268 | -79.88641 | 11880 ft | 319 kts | 303° |
| 2026-05-05 13:07 | 25.50554 | -79.90648 | 11619 ft | 316 kts | 303° |
| 2026-05-05 13:07 | 25.51826 | -79.92635 | 11382 ft | 314 kts | 303° |
| 2026-05-05 13:08 | 25.53084 | -79.94600 | 11168 ft | 313 kts | 302° |
| 2026-05-05 13:08 | 25.54320 | -79.96531 | 10958 ft | 305 kts | 303° |
| 2026-05-05 13:08 | 25.55537 | -79.98434 | 10756 ft | 297 kts | 303° |
| 2026-05-05 13:08 | 25.56706 | -80.00262 | 10561 ft | 289 kts | 303° |
| 2026-05-05 13:09 | 25.57851 | -80.02055 | 10368 ft | 281 kts | 303° |
| 2026-05-05 13:09 | 25.58971 | -80.03807 | 10178 ft | 274 kts | 303° |
| 2026-05-05 13:09 | 25.60047 | -80.05493 | 10000 ft | 267 kts | 303° |
| 2026-05-05 13:09 | 25.61105 | -80.07151 | 9810 ft | 262 kts | 303° |
| 2026-05-05 13:10 | 25.62173 | -80.08826 | 9602 ft | 262 kts | 302° |
| 2026-05-05 13:10 | 25.63212 | -80.10456 | 9402 ft | 261 kts | 302° |
| 2026-05-05 13:10 | 25.64271 | -80.12117 | 9205 ft | 262 kts | 302° |
| 2026-05-05 13:10 | 25.65306 | -80.13780 | 9002 ft | 262 kts | 298° |
| 2026-05-05 13:11 | 25.66135 | -80.15570 | 8787 ft | 260 kts | 294° |
| 2026-05-05 13:11 | 25.66896 | -80.17372 | 8542 ft | 260 kts | 293° |
| 2026-05-05 13:11 | 25.67660 | -80.19180 | 8300 ft | 259 kts | 293° |
| 2026-05-05 13:11 | 25.68434 | -80.21006 | 8016 ft | 255 kts | 294° |
| 2026-05-05 13:12 | 25.69218 | -80.22851 | 7829 ft | 261 kts | 293° |
| 2026-05-05 13:12 | 25.69976 | -80.24637 | 7609 ft | 256 kts | 294° |
| 2026-05-05 13:12 | 25.70740 | -80.26441 | 7241 ft | 258 kts | 292° |
| 2026-05-05 13:12 | 25.71151 | -80.28352 | 6874 ft | 256 kts | 272° |
| 2026-05-05 13:13 | 25.71129 | -80.30312 | 6529 ft | 256 kts | 268° |
| 2026-05-05 13:13 | 25.71041 | -80.32294 | 6130 ft | 254 kts | 267° |
| 2026-05-05 13:13 | 25.70946 | -80.34244 | 5664 ft | 256 kts | 267° |
| 2026-05-05 13:13 | 25.70852 | -80.36221 | 5237 ft | 257 kts | 267° |
| 2026-05-05 13:14 | 25.70758 | -80.38181 | 4829 ft | 257 kts | 267° |
| 2026-05-05 13:14 | 25.70664 | -80.40148 | 4581 ft | 251 kts | 268° |
| 2026-05-05 13:14 | 25.70571 | -80.42107 | 4568 ft | 257 kts | 267° |
| 2026-05-05 13:14 | 25.70477 | -80.44074 | 4564 ft | 258 kts | 268° |
| 2026-05-05 13:15 | 25.70657 | -80.46083 | 4556 ft | 256 kts | 279° |
| 2026-05-05 13:15 | 25.70696 | -80.48076 | 4550 ft | 256 kts | 266° |
| 2026-05-05 13:15 | 25.70533 | -80.50037 | 4542 ft | 255 kts | 265° |
| 2026-05-05 13:15 | 25.70437 | -80.52003 | 4485 ft | 255 kts | 278° |
| 2026-05-05 13:16 | 25.71059 | -80.53822 | 4394 ft | 255 kts | 306° |
| 2026-05-05 13:16 | 25.72411 | -80.55078 | 4269 ft | 256 kts | 335° |
| 2026-05-05 13:16 | 25.74143 | -80.55521 | 4150 ft | 256 kts | 358° |
| 2026-05-05 13:16 | 25.75869 | -80.55106 | 4059 ft | 256 kts | 27° |
| 2026-05-05 13:17 | 25.77219 | -80.53815 | 4016 ft | 257 kts | 51° |
| 2026-05-05 13:17 | 25.78120 | -80.52114 | 3779 ft | 260 kts | 73° |
| 2026-05-05 13:17 | 25.78281 | -80.50131 | 3394 ft | 257 kts | 92° |
| 2026-05-05 13:17 | 25.78209 | -80.48174 | 3063 ft | 247 kts | 92° |
| 2026-05-05 13:18 | 25.78151 | -80.46287 | 2741 ft | 239 kts | 91° |
| 2026-05-05 13:18 | 25.78145 | -80.44480 | 2436 ft | 227 kts | 89° |
| 2026-05-05 13:18 | 25.78173 | -80.42816 | 2147 ft | 201 kts | 88° |
| 2026-05-05 13:18 | 25.78212 | -80.41354 | 1901 ft | 181 kts | 87° |
| 2026-05-05 13:19 | 25.78263 | -80.40012 | 1676 ft | 170 kts | 87° |
| 2026-05-05 13:19 | 25.78315 | -80.38728 | 1441 ft | 161 kts | 86° |
| 2026-05-05 13:19 | 25.78363 | -80.37521 | 1213 ft | 147 kts | 86° |
| 2026-05-05 13:19 | 25.78408 | -80.36407 | 1016 ft | 143 kts | 86° |
| 2026-05-05 13:20 | 25.78453 | -80.35323 | 817 ft | 140 kts | 86° |
| 2026-05-05 13:20 | 25.78498 | -80.34238 | 619 ft | 140 kts | 86° |
| 2026-05-05 13:20 | 25.78543 | -80.33151 | 421 ft | 141 kts | 86° |
| 2026-05-05 13:20 | 25.78580 | -80.32086 | 209 ft | 140 kts | 86° |
| 2026-05-05 13:21 | 25.78627 | -80.30998 | 50 ft | 140 kts | 85° |
| 2026-05-05 13:21 | 25.78674 | -80.30024 | 20 ft | 106 kts | 86° |
| 2026-05-05 13:21 | 25.78700 | -80.29376 | 20 ft | 62 kts | 87° |
| 2026-05-05 13:21 | 25.78713 | -80.29047 | 20 ft | 31 kts | 88° |
| 2026-05-05 13:22 | 25.78734 | -80.28818 | 20 ft | 28 kts | 79° |
| 2026-05-05 13:22 | 25.78840 | -80.28657 | 20 ft | 25 kts | 40° |
| 2026-05-05 13:22 | 25.78932 | -80.28577 | 20 ft | 1 kts | 37° |
| 2026-05-05 13:22 | 25.78943 | -80.28568 | 20 ft | 2 kts | 37° |
| 2026-05-05 13:23 | 25.78946 | -80.28566 | 20 ft | 0 kts | 37° |
| 2026-05-05 13:23 | 25.78958 | -80.28556 | 20 ft | 6 kts | 35° |
| 2026-05-05 13:23 | 25.79021 | -80.28507 | 20 ft | 15 kts | 36° |
| 2026-05-05 13:24 | 25.79137 | -80.28467 | 20 ft | 21 kts | 328° |
| 2026-05-05 13:24 | 25.79237 | -80.28625 | 20 ft | 28 kts | 297° |
| 2026-05-05 13:24 | 25.79341 | -80.28826 | 20 ft | 19 kts | 301° |
| 2026-05-05 13:24 | 25.79426 | -80.28865 | 20 ft | 14 kts | 32° |
| 2026-05-05 13:25 | 25.79536 | -80.28804 | 20 ft | 21 kts | 3° |
| 2026-05-05 13:25 | 25.79712 | -80.28811 | 20 ft | 28 kts | 358° |
| 2026-05-05 13:25 | 25.79908 | -80.28804 | 20 ft | 24 kts | 39° |
| 2026-05-05 13:25 | 25.79940 | -80.28625 | 20 ft | 23 kts | 86° |
| 2026-05-05 13:26 | 25.79945 | -80.28453 | 20 ft | 21 kts | 85° |
| 2026-05-05 13:26 | 25.79954 | -80.28294 | 20 ft | 20 kts | 86° |
| 2026-05-05 13:26 | 25.79959 | -80.28146 | 20 ft | 18 kts | 88° |
| 2026-05-05 13:26 | 25.79963 | -80.28007 | 20 ft | 17 kts | 89° |
| 2026-05-05 13:27 | 25.79928 | -80.27899 | 20 ft | 14 kts | 167° |
| 2026-05-05 13:27 | 25.79867 | -80.27895 | 20 ft | 3 kts | 179° |
| 2026-05-05 13:27 | 25.79841 | -80.27895 | 20 ft | 3 kts | 179° |
| 2026-05-05 13:27 | 25.79813 | -80.27894 | 20 ft | 4 kts | 177° |
| 2026-05-05 13:28 | 25.79791 | -80.27892 | 20 ft | 0 kts | 178° |
| 2026-05-05 13:28 | 25.79790 | -80.27892 | 20 ft | 0 kts | 178° |
| 2026-05-05 13:28 | 25.79789 | -80.27892 | 20 ft | 0 kts | 178° |